<?xml version="1.0" encoding="UTF-8" standalone="no" ?>
<gpx xmlns="http://www.topografix.com/GPX/1/1" xmlns:xsi="http://www.w3.org/2001/XMLSchema-instance" xsi:schemaLocation="http://www.topografix.com/GPX/1/1 http://www.topografix.com/GPX/1/1/gpx.xsd" version="1.1" creator="VisuGPX - https://www.visugpx.com">
  <metadata>
    <name>Plérimond Aups</name>
    <desc><![CDATA[Au départ du gîte, petite balade sur terrain souple et boisé, trotting sur plusieurs km, direction Aups en passant à proximité de Fabrègues puis retour au gîte]]></desc>
  </metadata>
  <trk>
    <name><![CDATA[FABREGUE AUPS06:27 PM]]></name>
    <trkseg>
      <trkpt lat="43.59955" lon="6.24818">
        <ele>521.17</ele>
        <time>2015-02-22T14:21:46Z</time>
      </trkpt>
      <trkpt lat="43.59955" lon="6.24819">
        <ele>516.37</ele>
        <time>2015-02-22T14:21:48Z</time>
      </trkpt>
      <trkpt lat="43.59955" lon="6.24819">
        <ele>513.48</ele>
        <time>2015-02-22T14:21:49Z</time>
      </trkpt>
      <trkpt lat="43.59955" lon="6.24818">
        <ele>509.16</ele>
        <time>2015-02-22T14:21:51Z</time>
      </trkpt>
      <trkpt lat="43.59954" lon="6.24817">
        <ele>505.31</ele>
        <time>2015-02-22T14:21:53Z</time>
      </trkpt>
      <trkpt lat="43.59953" lon="6.24817">
        <ele>501.46</ele>
        <time>2015-02-22T14:21:55Z</time>
      </trkpt>
      <trkpt lat="43.59953" lon="6.24817">
        <ele>497.62</ele>
        <time>2015-02-22T14:21:57Z</time>
      </trkpt>
      <trkpt lat="43.59953" lon="6.24818">
        <ele>493.77</ele>
        <time>2015-02-22T14:22:00Z</time>
      </trkpt>
      <trkpt lat="43.59953" lon="6.24819">
        <ele>490.41</ele>
        <time>2015-02-22T14:22:02Z</time>
      </trkpt>
      <trkpt lat="43.59954" lon="6.24819">
        <ele>486.56</ele>
        <time>2015-02-22T14:22:05Z</time>
      </trkpt>
      <trkpt lat="43.59954" lon="6.2482">
        <ele>482.72</ele>
        <time>2015-02-22T14:22:07Z</time>
      </trkpt>
      <trkpt lat="43.59954" lon="6.2482">
        <ele>483.2</ele>
        <time>2015-02-22T14:22:08Z</time>
      </trkpt>
      <trkpt lat="43.59954" lon="6.2482">
        <ele>479.35</ele>
        <time>2015-02-22T14:22:10Z</time>
      </trkpt>
      <trkpt lat="43.59954" lon="6.2482">
        <ele>479.84</ele>
        <time>2015-02-22T14:22:11Z</time>
      </trkpt>
      <trkpt lat="43.59954" lon="6.2482">
        <ele>476.47</ele>
        <time>2015-02-22T14:22:14Z</time>
      </trkpt>
      <trkpt lat="43.59954" lon="6.2482">
        <ele>473.59</ele>
        <time>2015-02-22T14:22:17Z</time>
      </trkpt>
      <trkpt lat="43.59954" lon="6.2482">
        <ele>473.11</ele>
        <time>2015-02-22T14:22:18Z</time>
      </trkpt>
      <trkpt lat="43.59953" lon="6.2482">
        <ele>469.74</ele>
        <time>2015-02-22T14:22:22Z</time>
      </trkpt>
      <trkpt lat="43.59953" lon="6.2482">
        <ele>466.38</ele>
        <time>2015-02-22T14:22:26Z</time>
      </trkpt>
      <trkpt lat="43.59954" lon="6.2482">
        <ele>463.49</ele>
        <time>2015-02-22T14:22:31Z</time>
      </trkpt>
      <trkpt lat="43.59953" lon="6.24821">
        <ele>460.13</ele>
        <time>2015-02-22T14:22:37Z</time>
      </trkpt>
      <trkpt lat="43.59953" lon="6.24821">
        <ele>459.65</ele>
        <time>2015-02-22T14:22:38Z</time>
      </trkpt>
      <trkpt lat="43.59954" lon="6.24819">
        <ele>457.72</ele>
        <time>2015-02-22T14:22:42Z</time>
      </trkpt>
      <trkpt lat="43.59955" lon="6.24815">
        <ele>456.28</ele>
        <time>2015-02-22T14:22:47Z</time>
      </trkpt>
      <trkpt lat="43.59956" lon="6.24809">
        <ele>454.36</ele>
        <time>2015-02-22T14:22:51Z</time>
      </trkpt>
      <trkpt lat="43.59958" lon="6.24804">
        <ele>452.92</ele>
        <time>2015-02-22T14:22:54Z</time>
      </trkpt>
      <trkpt lat="43.59964" lon="6.24791">
        <ele>450.03</ele>
        <time>2015-02-22T14:23:03Z</time>
      </trkpt>
      <trkpt lat="43.59974" lon="6.24772">
        <ele>448.11</ele>
        <time>2015-02-22T14:23:17Z</time>
      </trkpt>
      <trkpt lat="43.59981" lon="6.24755">
        <ele>446.19</ele>
        <time>2015-02-22T14:23:28Z</time>
      </trkpt>
      <trkpt lat="43.59985" lon="6.24746">
        <ele>445.23</ele>
        <time>2015-02-22T14:23:34Z</time>
      </trkpt>
      <trkpt lat="43.59996" lon="6.24717">
        <ele>444.27</ele>
        <time>2015-02-22T14:23:52Z</time>
      </trkpt>
      <trkpt lat="43.59995" lon="6.24699">
        <ele>444.27</ele>
        <time>2015-02-22T14:24:06Z</time>
      </trkpt>
      <trkpt lat="43.59995" lon="6.24697">
        <ele>444.27</ele>
        <time>2015-02-22T14:24:10Z</time>
      </trkpt>
      <trkpt lat="43.59994" lon="6.24694">
        <ele>444.27</ele>
        <time>2015-02-22T14:24:12Z</time>
      </trkpt>
      <trkpt lat="43.59994" lon="6.24688">
        <ele>443.31</ele>
        <time>2015-02-22T14:24:30Z</time>
      </trkpt>
      <trkpt lat="43.59994" lon="6.24688">
        <ele>443.31</ele>
        <time>2015-02-22T14:24:33Z</time>
      </trkpt>
      <trkpt lat="43.59993" lon="6.24684">
        <ele>444.75</ele>
        <time>2015-02-22T14:24:35Z</time>
      </trkpt>
      <trkpt lat="43.59993" lon="6.24683">
        <ele>441.86</ele>
        <time>2015-02-22T14:24:38Z</time>
      </trkpt>
      <trkpt lat="43.59994" lon="6.24684">
        <ele>442.82</ele>
        <time>2015-02-22T14:24:52Z</time>
      </trkpt>
      <trkpt lat="43.59996" lon="6.24688">
        <ele>443.31</ele>
        <time>2015-02-22T14:25:11Z</time>
      </trkpt>
      <trkpt lat="43.59996" lon="6.24687">
        <ele>442.82</ele>
        <time>2015-02-22T14:25:14Z</time>
      </trkpt>
      <trkpt lat="43.59994" lon="6.24685">
        <ele>441.38</ele>
        <time>2015-02-22T14:25:27Z</time>
      </trkpt>
      <trkpt lat="43.59994" lon="6.24685">
        <ele>442.82</ele>
        <time>2015-02-22T14:25:44Z</time>
      </trkpt>
      <trkpt lat="43.59994" lon="6.24684">
        <ele>442.82</ele>
        <time>2015-02-22T14:25:57Z</time>
      </trkpt>
      <trkpt lat="43.59989" lon="6.24677">
        <ele>442.34</ele>
        <time>2015-02-22T14:26:10Z</time>
      </trkpt>
      <trkpt lat="43.59982" lon="6.24652">
        <ele>440.42</ele>
        <time>2015-02-22T14:26:25Z</time>
      </trkpt>
      <trkpt lat="43.59977" lon="6.24627">
        <ele>440.42</ele>
        <time>2015-02-22T14:26:38Z</time>
      </trkpt>
      <trkpt lat="43.59974" lon="6.24602">
        <ele>439.46</ele>
        <time>2015-02-22T14:26:51Z</time>
      </trkpt>
      <trkpt lat="43.59974" lon="6.24581">
        <ele>439.46</ele>
        <time>2015-02-22T14:27:04Z</time>
      </trkpt>
      <trkpt lat="43.59971" lon="6.24553">
        <ele>438.5</ele>
        <time>2015-02-22T14:27:19Z</time>
      </trkpt>
      <trkpt lat="43.59972" lon="6.24546">
        <ele>438.98</ele>
        <time>2015-02-22T14:27:23Z</time>
      </trkpt>
      <trkpt lat="43.59976" lon="6.24535">
        <ele>438.02</ele>
        <time>2015-02-22T14:27:31Z</time>
      </trkpt>
      <trkpt lat="43.5999" lon="6.24517">
        <ele>438.02</ele>
        <time>2015-02-22T14:27:45Z</time>
      </trkpt>
      <trkpt lat="43.60007" lon="6.24506">
        <ele>438.5</ele>
        <time>2015-02-22T14:28:00Z</time>
      </trkpt>
      <trkpt lat="43.60026" lon="6.24496">
        <ele>437.06</ele>
        <time>2015-02-22T14:28:15Z</time>
      </trkpt>
      <trkpt lat="43.60037" lon="6.24482">
        <ele>435.61</ele>
        <time>2015-02-22T14:28:27Z</time>
      </trkpt>
      <trkpt lat="43.60047" lon="6.24464">
        <ele>435.61</ele>
        <time>2015-02-22T14:28:40Z</time>
      </trkpt>
      <trkpt lat="43.60057" lon="6.24438">
        <ele>433.21</ele>
        <time>2015-02-22T14:28:54Z</time>
      </trkpt>
      <trkpt lat="43.60058" lon="6.24435">
        <ele>433.21</ele>
        <time>2015-02-22T14:28:56Z</time>
      </trkpt>
      <trkpt lat="43.60067" lon="6.24421">
        <ele>433.21</ele>
        <time>2015-02-22T14:29:06Z</time>
      </trkpt>
      <trkpt lat="43.60082" lon="6.24393">
        <ele>432.73</ele>
        <time>2015-02-22T14:29:24Z</time>
      </trkpt>
      <trkpt lat="43.60093" lon="6.24369">
        <ele>433.21</ele>
        <time>2015-02-22T14:29:40Z</time>
      </trkpt>
      <trkpt lat="43.60103" lon="6.24344">
        <ele>433.21</ele>
        <time>2015-02-22T14:29:55Z</time>
      </trkpt>
      <trkpt lat="43.60111" lon="6.2432">
        <ele>432.73</ele>
        <time>2015-02-22T14:30:10Z</time>
      </trkpt>
      <trkpt lat="43.60122" lon="6.24296">
        <ele>434.17</ele>
        <time>2015-02-22T14:30:25Z</time>
      </trkpt>
      <trkpt lat="43.60127" lon="6.2427">
        <ele>433.21</ele>
        <time>2015-02-22T14:30:38Z</time>
      </trkpt>
      <trkpt lat="43.60134" lon="6.24243">
        <ele>433.69</ele>
        <time>2015-02-22T14:30:54Z</time>
      </trkpt>
      <trkpt lat="43.6014" lon="6.24217">
        <ele>434.65</ele>
        <time>2015-02-22T14:31:08Z</time>
      </trkpt>
      <trkpt lat="43.60144" lon="6.24198">
        <ele>435.61</ele>
        <time>2015-02-22T14:31:20Z</time>
      </trkpt>
      <trkpt lat="43.60153" lon="6.24186">
        <ele>435.13</ele>
        <time>2015-02-22T14:31:32Z</time>
      </trkpt>
      <trkpt lat="43.60168" lon="6.24167">
        <ele>434.17</ele>
        <time>2015-02-22T14:31:48Z</time>
      </trkpt>
      <trkpt lat="43.6018" lon="6.24149">
        <ele>433.69</ele>
        <time>2015-02-22T14:32:01Z</time>
      </trkpt>
      <trkpt lat="43.60192" lon="6.24132">
        <ele>432.73</ele>
        <time>2015-02-22T14:32:16Z</time>
      </trkpt>
      <trkpt lat="43.60204" lon="6.24114">
        <ele>433.21</ele>
        <time>2015-02-22T14:32:31Z</time>
      </trkpt>
      <trkpt lat="43.60209" lon="6.24105">
        <ele>433.21</ele>
        <time>2015-02-22T14:32:39Z</time>
      </trkpt>
      <trkpt lat="43.60222" lon="6.24092">
        <ele>433.21</ele>
        <time>2015-02-22T14:32:52Z</time>
      </trkpt>
      <trkpt lat="43.60234" lon="6.24069">
        <ele>433.69</ele>
        <time>2015-02-22T14:33:07Z</time>
      </trkpt>
      <trkpt lat="43.60242" lon="6.24046">
        <ele>434.17</ele>
        <time>2015-02-22T14:33:20Z</time>
      </trkpt>
      <trkpt lat="43.6025" lon="6.2403">
        <ele>435.13</ele>
        <time>2015-02-22T14:33:32Z</time>
      </trkpt>
      <trkpt lat="43.60256" lon="6.24023">
        <ele>435.61</ele>
        <time>2015-02-22T14:33:40Z</time>
      </trkpt>
      <trkpt lat="43.6026" lon="6.24016">
        <ele>436.58</ele>
        <time>2015-02-22T14:33:47Z</time>
      </trkpt>
      <trkpt lat="43.6027" lon="6.24">
        <ele>437.54</ele>
        <time>2015-02-22T14:34:01Z</time>
      </trkpt>
      <trkpt lat="43.60282" lon="6.23992">
        <ele>438.02</ele>
        <time>2015-02-22T14:34:14Z</time>
      </trkpt>
      <trkpt lat="43.60285" lon="6.2399">
        <ele>438.02</ele>
        <time>2015-02-22T14:34:17Z</time>
      </trkpt>
      <trkpt lat="43.60294" lon="6.23964">
        <ele>438.02</ele>
        <time>2015-02-22T14:34:30Z</time>
      </trkpt>
      <trkpt lat="43.60306" lon="6.23944">
        <ele>436.1</ele>
        <time>2015-02-22T14:34:41Z</time>
      </trkpt>
      <trkpt lat="43.60314" lon="6.2393">
        <ele>434.65</ele>
        <time>2015-02-22T14:34:51Z</time>
      </trkpt>
      <trkpt lat="43.6032" lon="6.23922">
        <ele>433.69</ele>
        <time>2015-02-22T14:34:59Z</time>
      </trkpt>
      <trkpt lat="43.6033" lon="6.23897">
        <ele>433.21</ele>
        <time>2015-02-22T14:35:10Z</time>
      </trkpt>
      <trkpt lat="43.6033" lon="6.23897">
        <ele>433.21</ele>
        <time>2015-02-22T14:35:11Z</time>
      </trkpt>
      <trkpt lat="43.60338" lon="6.23874">
        <ele>434.17</ele>
        <time>2015-02-22T14:35:23Z</time>
      </trkpt>
      <trkpt lat="43.60343" lon="6.23861">
        <ele>435.13</ele>
        <time>2015-02-22T14:35:28Z</time>
      </trkpt>
      <trkpt lat="43.60359" lon="6.23826">
        <ele>438.98</ele>
        <time>2015-02-22T14:35:38Z</time>
      </trkpt>
      <trkpt lat="43.60378" lon="6.2379">
        <ele>440.9</ele>
        <time>2015-02-22T14:35:48Z</time>
      </trkpt>
      <trkpt lat="43.60381" lon="6.23786">
        <ele>442.34</ele>
        <time>2015-02-22T14:35:51Z</time>
      </trkpt>
      <trkpt lat="43.60385" lon="6.23779">
        <ele>441.86</ele>
        <time>2015-02-22T14:36:14Z</time>
      </trkpt>
      <trkpt lat="43.60385" lon="6.23778">
        <ele>442.34</ele>
        <time>2015-02-22T14:36:15Z</time>
      </trkpt>
      <trkpt lat="43.60389" lon="6.23772">
        <ele>442.34</ele>
        <time>2015-02-22T14:36:20Z</time>
      </trkpt>
      <trkpt lat="43.604" lon="6.23756">
        <ele>442.82</ele>
        <time>2015-02-22T14:36:33Z</time>
      </trkpt>
      <trkpt lat="43.60407" lon="6.23748">
        <ele>442.82</ele>
        <time>2015-02-22T14:36:41Z</time>
      </trkpt>
      <trkpt lat="43.60424" lon="6.23725">
        <ele>442.34</ele>
        <time>2015-02-22T14:36:55Z</time>
      </trkpt>
      <trkpt lat="43.6044" lon="6.23699">
        <ele>441.86</ele>
        <time>2015-02-22T14:37:09Z</time>
      </trkpt>
      <trkpt lat="43.60447" lon="6.23687">
        <ele>441.86</ele>
        <time>2015-02-22T14:37:15Z</time>
      </trkpt>
      <trkpt lat="43.60467" lon="6.23658">
        <ele>440.42</ele>
        <time>2015-02-22T14:37:32Z</time>
      </trkpt>
      <trkpt lat="43.6047" lon="6.23653">
        <ele>439.94</ele>
        <time>2015-02-22T14:37:35Z</time>
      </trkpt>
      <trkpt lat="43.60473" lon="6.23649">
        <ele>439.46</ele>
        <time>2015-02-22T14:37:38Z</time>
      </trkpt>
      <trkpt lat="43.60482" lon="6.23634">
        <ele>438.98</ele>
        <time>2015-02-22T14:37:49Z</time>
      </trkpt>
      <trkpt lat="43.60484" lon="6.2363">
        <ele>438.98</ele>
        <time>2015-02-22T14:37:51Z</time>
      </trkpt>
      <trkpt lat="43.60495" lon="6.23615">
        <ele>438.02</ele>
        <time>2015-02-22T14:38:01Z</time>
      </trkpt>
      <trkpt lat="43.60499" lon="6.23603">
        <ele>437.54</ele>
        <time>2015-02-22T14:38:06Z</time>
      </trkpt>
      <trkpt lat="43.60511" lon="6.23588">
        <ele>435.61</ele>
        <time>2015-02-22T14:38:19Z</time>
      </trkpt>
      <trkpt lat="43.60519" lon="6.23585">
        <ele>434.17</ele>
        <time>2015-02-22T14:38:30Z</time>
      </trkpt>
      <trkpt lat="43.60522" lon="6.23586">
        <ele>433.69</ele>
        <time>2015-02-22T14:38:32Z</time>
      </trkpt>
      <trkpt lat="43.60529" lon="6.23583">
        <ele>432.73</ele>
        <time>2015-02-22T14:38:37Z</time>
      </trkpt>
      <trkpt lat="43.60535" lon="6.23578">
        <ele>431.29</ele>
        <time>2015-02-22T14:38:42Z</time>
      </trkpt>
      <trkpt lat="43.60544" lon="6.23562">
        <ele>429.37</ele>
        <time>2015-02-22T14:38:53Z</time>
      </trkpt>
      <trkpt lat="43.6056" lon="6.23547">
        <ele>427.44</ele>
        <time>2015-02-22T14:39:06Z</time>
      </trkpt>
      <trkpt lat="43.60563" lon="6.23545">
        <ele>426.96</ele>
        <time>2015-02-22T14:39:08Z</time>
      </trkpt>
      <trkpt lat="43.60574" lon="6.23527">
        <ele>426.96</ele>
        <time>2015-02-22T14:39:16Z</time>
      </trkpt>
      <trkpt lat="43.60576" lon="6.23519">
        <ele>427.44</ele>
        <time>2015-02-22T14:39:21Z</time>
      </trkpt>
      <trkpt lat="43.60578" lon="6.23491">
        <ele>427.92</ele>
        <time>2015-02-22T14:39:33Z</time>
      </trkpt>
      <trkpt lat="43.60585" lon="6.23483">
        <ele>428.4</ele>
        <time>2015-02-22T14:39:45Z</time>
      </trkpt>
      <trkpt lat="43.6059" lon="6.23482">
        <ele>429.37</ele>
        <time>2015-02-22T14:39:50Z</time>
      </trkpt>
      <trkpt lat="43.60586" lon="6.2349">
        <ele>427.92</ele>
        <time>2015-02-22T14:40:05Z</time>
      </trkpt>
      <trkpt lat="43.60585" lon="6.23493">
        <ele>427.92</ele>
        <time>2015-02-22T14:40:22Z</time>
      </trkpt>
      <trkpt lat="43.60585" lon="6.23493">
        <ele>427.92</ele>
        <time>2015-02-22T14:40:44Z</time>
      </trkpt>
      <trkpt lat="43.60585" lon="6.23493">
        <ele>427.44</ele>
        <time>2015-02-22T14:40:57Z</time>
      </trkpt>
      <trkpt lat="43.60585" lon="6.23489">
        <ele>427.92</ele>
        <time>2015-02-22T14:41:01Z</time>
      </trkpt>
      <trkpt lat="43.60585" lon="6.23458">
        <ele>428.89</ele>
        <time>2015-02-22T14:41:13Z</time>
      </trkpt>
      <trkpt lat="43.60592" lon="6.23436">
        <ele>432.25</ele>
        <time>2015-02-22T14:41:20Z</time>
      </trkpt>
      <trkpt lat="43.60594" lon="6.2343">
        <ele>433.21</ele>
        <time>2015-02-22T14:41:24Z</time>
      </trkpt>
      <trkpt lat="43.6059" lon="6.23416">
        <ele>432.73</ele>
        <time>2015-02-22T14:41:27Z</time>
      </trkpt>
      <trkpt lat="43.60586" lon="6.23373">
        <ele>434.17</ele>
        <time>2015-02-22T14:41:34Z</time>
      </trkpt>
      <trkpt lat="43.60627" lon="6.23325">
        <ele>435.13</ele>
        <time>2015-02-22T14:41:46Z</time>
      </trkpt>
      <trkpt lat="43.60664" lon="6.23283">
        <ele>436.58</ele>
        <time>2015-02-22T14:41:58Z</time>
      </trkpt>
      <trkpt lat="43.60693" lon="6.2325">
        <ele>438.5</ele>
        <time>2015-02-22T14:42:09Z</time>
      </trkpt>
      <trkpt lat="43.60694" lon="6.23247">
        <ele>438.02</ele>
        <time>2015-02-22T14:42:10Z</time>
      </trkpt>
      <trkpt lat="43.60694" lon="6.23245">
        <ele>438.5</ele>
        <time>2015-02-22T14:42:11Z</time>
      </trkpt>
      <trkpt lat="43.60684" lon="6.23224">
        <ele>441.38</ele>
        <time>2015-02-22T14:42:23Z</time>
      </trkpt>
      <trkpt lat="43.60683" lon="6.23222">
        <ele>441.86</ele>
        <time>2015-02-22T14:42:24Z</time>
      </trkpt>
      <trkpt lat="43.60682" lon="6.23221">
        <ele>442.34</ele>
        <time>2015-02-22T14:42:25Z</time>
      </trkpt>
      <trkpt lat="43.60681" lon="6.23219">
        <ele>442.34</ele>
        <time>2015-02-22T14:42:26Z</time>
      </trkpt>
      <trkpt lat="43.60663" lon="6.23186">
        <ele>445.23</ele>
        <time>2015-02-22T14:42:35Z</time>
      </trkpt>
      <trkpt lat="43.60645" lon="6.23155">
        <ele>448.59</ele>
        <time>2015-02-22T14:42:44Z</time>
      </trkpt>
      <trkpt lat="43.60633" lon="6.23127">
        <ele>450.03</ele>
        <time>2015-02-22T14:42:55Z</time>
      </trkpt>
      <trkpt lat="43.60621" lon="6.23102">
        <ele>449.55</ele>
        <time>2015-02-22T14:43:01Z</time>
      </trkpt>
      <trkpt lat="43.6062" lon="6.23099">
        <ele>449.55</ele>
        <time>2015-02-22T14:43:02Z</time>
      </trkpt>
      <trkpt lat="43.60611" lon="6.23078">
        <ele>449.55</ele>
        <time>2015-02-22T14:43:15Z</time>
      </trkpt>
      <trkpt lat="43.60606" lon="6.23062">
        <ele>447.15</ele>
        <time>2015-02-22T14:43:26Z</time>
      </trkpt>
      <trkpt lat="43.60606" lon="6.23053">
        <ele>449.07</ele>
        <time>2015-02-22T14:43:46Z</time>
      </trkpt>
      <trkpt lat="43.606" lon="6.2304">
        <ele>447.15</ele>
        <time>2015-02-22T14:44:02Z</time>
      </trkpt>
      <trkpt lat="43.60597" lon="6.23037">
        <ele>446.19</ele>
        <time>2015-02-22T14:44:05Z</time>
      </trkpt>
      <trkpt lat="43.60594" lon="6.23034">
        <ele>446.19</ele>
        <time>2015-02-22T14:44:08Z</time>
      </trkpt>
      <trkpt lat="43.6058" lon="6.23025">
        <ele>445.71</ele>
        <time>2015-02-22T14:44:18Z</time>
      </trkpt>
      <trkpt lat="43.60568" lon="6.23028">
        <ele>445.71</ele>
        <time>2015-02-22T14:44:29Z</time>
      </trkpt>
      <trkpt lat="43.60562" lon="6.23032">
        <ele>446.19</ele>
        <time>2015-02-22T14:44:35Z</time>
      </trkpt>
      <trkpt lat="43.60559" lon="6.23033">
        <ele>446.19</ele>
        <time>2015-02-22T14:44:37Z</time>
      </trkpt>
      <trkpt lat="43.60549" lon="6.23035">
        <ele>446.67</ele>
        <time>2015-02-22T14:44:44Z</time>
      </trkpt>
      <trkpt lat="43.60548" lon="6.23035">
        <ele>446.67</ele>
        <time>2015-02-22T14:44:45Z</time>
      </trkpt>
      <trkpt lat="43.60546" lon="6.23035">
        <ele>446.67</ele>
        <time>2015-02-22T14:44:46Z</time>
      </trkpt>
      <trkpt lat="43.60532" lon="6.23042">
        <ele>447.15</ele>
        <time>2015-02-22T14:44:56Z</time>
      </trkpt>
      <trkpt lat="43.6053" lon="6.23044">
        <ele>447.63</ele>
        <time>2015-02-22T14:44:57Z</time>
      </trkpt>
      <trkpt lat="43.60528" lon="6.23045">
        <ele>447.63</ele>
        <time>2015-02-22T14:44:58Z</time>
      </trkpt>
      <trkpt lat="43.60526" lon="6.23045">
        <ele>448.11</ele>
        <time>2015-02-22T14:45:00Z</time>
      </trkpt>
      <trkpt lat="43.60516" lon="6.23048">
        <ele>448.59</ele>
        <time>2015-02-22T14:45:07Z</time>
      </trkpt>
      <trkpt lat="43.60497" lon="6.23045">
        <ele>450.03</ele>
        <time>2015-02-22T14:45:22Z</time>
      </trkpt>
      <trkpt lat="43.60481" lon="6.23043">
        <ele>450.52</ele>
        <time>2015-02-22T14:45:35Z</time>
      </trkpt>
      <trkpt lat="43.60469" lon="6.23031">
        <ele>452.92</ele>
        <time>2015-02-22T14:45:49Z</time>
      </trkpt>
      <trkpt lat="43.6047" lon="6.23029">
        <ele>453.4</ele>
        <time>2015-02-22T14:45:50Z</time>
      </trkpt>
      <trkpt lat="43.60472" lon="6.23023">
        <ele>453.88</ele>
        <time>2015-02-22T14:45:54Z</time>
      </trkpt>
      <trkpt lat="43.60476" lon="6.23015">
        <ele>455.32</ele>
        <time>2015-02-22T14:46:01Z</time>
      </trkpt>
      <trkpt lat="43.60484" lon="6.23007">
        <ele>455.32</ele>
        <time>2015-02-22T14:46:08Z</time>
      </trkpt>
      <trkpt lat="43.60483" lon="6.22998">
        <ele>455.8</ele>
        <time>2015-02-22T14:46:15Z</time>
      </trkpt>
      <trkpt lat="43.60478" lon="6.22991">
        <ele>457.24</ele>
        <time>2015-02-22T14:46:21Z</time>
      </trkpt>
      <trkpt lat="43.60468" lon="6.22977">
        <ele>458.69</ele>
        <time>2015-02-22T14:46:35Z</time>
      </trkpt>
      <trkpt lat="43.60458" lon="6.22959">
        <ele>459.65</ele>
        <time>2015-02-22T14:46:49Z</time>
      </trkpt>
      <trkpt lat="43.60447" lon="6.22944">
        <ele>460.61</ele>
        <time>2015-02-22T14:47:03Z</time>
      </trkpt>
      <trkpt lat="43.60441" lon="6.22936">
        <ele>461.57</ele>
        <time>2015-02-22T14:47:10Z</time>
      </trkpt>
      <trkpt lat="43.60429" lon="6.22919">
        <ele>463.49</ele>
        <time>2015-02-22T14:47:26Z</time>
      </trkpt>
      <trkpt lat="43.60419" lon="6.22903">
        <ele>464.93</ele>
        <time>2015-02-22T14:47:38Z</time>
      </trkpt>
      <trkpt lat="43.60412" lon="6.22886">
        <ele>466.38</ele>
        <time>2015-02-22T14:47:50Z</time>
      </trkpt>
      <trkpt lat="43.60401" lon="6.22868">
        <ele>466.86</ele>
        <time>2015-02-22T14:48:03Z</time>
      </trkpt>
      <trkpt lat="43.60391" lon="6.22856">
        <ele>468.78</ele>
        <time>2015-02-22T14:48:14Z</time>
      </trkpt>
      <trkpt lat="43.60375" lon="6.22849">
        <ele>469.74</ele>
        <time>2015-02-22T14:48:29Z</time>
      </trkpt>
      <trkpt lat="43.60362" lon="6.22848">
        <ele>470.22</ele>
        <time>2015-02-22T14:48:41Z</time>
      </trkpt>
      <trkpt lat="43.60344" lon="6.22859">
        <ele>469.74</ele>
        <time>2015-02-22T14:48:55Z</time>
      </trkpt>
      <trkpt lat="43.60324" lon="6.22866">
        <ele>470.22</ele>
        <time>2015-02-22T14:49:10Z</time>
      </trkpt>
      <trkpt lat="43.60308" lon="6.22872">
        <ele>470.7</ele>
        <time>2015-02-22T14:49:25Z</time>
      </trkpt>
      <trkpt lat="43.60297" lon="6.22863">
        <ele>471.66</ele>
        <time>2015-02-22T14:49:34Z</time>
      </trkpt>
      <trkpt lat="43.60288" lon="6.22846">
        <ele>471.66</ele>
        <time>2015-02-22T14:49:45Z</time>
      </trkpt>
      <trkpt lat="43.60275" lon="6.22826">
        <ele>472.63</ele>
        <time>2015-02-22T14:50:02Z</time>
      </trkpt>
      <trkpt lat="43.60264" lon="6.22801">
        <ele>472.63</ele>
        <time>2015-02-22T14:50:18Z</time>
      </trkpt>
      <trkpt lat="43.60263" lon="6.22793">
        <ele>473.11</ele>
        <time>2015-02-22T14:50:23Z</time>
      </trkpt>
      <trkpt lat="43.60261" lon="6.22781">
        <ele>472.63</ele>
        <time>2015-02-22T14:50:29Z</time>
      </trkpt>
      <trkpt lat="43.60253" lon="6.2276">
        <ele>472.63</ele>
        <time>2015-02-22T14:50:45Z</time>
      </trkpt>
      <trkpt lat="43.60246" lon="6.22744">
        <ele>473.11</ele>
        <time>2015-02-22T14:50:55Z</time>
      </trkpt>
      <trkpt lat="43.6024" lon="6.22725">
        <ele>472.14</ele>
        <time>2015-02-22T14:51:09Z</time>
      </trkpt>
      <trkpt lat="43.60234" lon="6.22713">
        <ele>472.14</ele>
        <time>2015-02-22T14:51:16Z</time>
      </trkpt>
      <trkpt lat="43.60231" lon="6.22707">
        <ele>471.66</ele>
        <time>2015-02-22T14:51:20Z</time>
      </trkpt>
      <trkpt lat="43.60224" lon="6.22686">
        <ele>470.7</ele>
        <time>2015-02-22T14:51:34Z</time>
      </trkpt>
      <trkpt lat="43.60215" lon="6.22665">
        <ele>469.74</ele>
        <time>2015-02-22T14:51:47Z</time>
      </trkpt>
      <trkpt lat="43.60206" lon="6.22643">
        <ele>468.3</ele>
        <time>2015-02-22T14:52:01Z</time>
      </trkpt>
      <trkpt lat="43.60205" lon="6.22636">
        <ele>468.3</ele>
        <time>2015-02-22T14:52:05Z</time>
      </trkpt>
      <trkpt lat="43.60203" lon="6.22628">
        <ele>468.3</ele>
        <time>2015-02-22T14:52:09Z</time>
      </trkpt>
      <trkpt lat="43.60199" lon="6.22602">
        <ele>466.86</ele>
        <time>2015-02-22T14:52:24Z</time>
      </trkpt>
      <trkpt lat="43.60199" lon="6.22601">
        <ele>466.86</ele>
        <time>2015-02-22T14:52:25Z</time>
      </trkpt>
      <trkpt lat="43.60178" lon="6.22576">
        <ele>465.42</ele>
        <time>2015-02-22T14:52:41Z</time>
      </trkpt>
      <trkpt lat="43.60169" lon="6.22548">
        <ele>463.97</ele>
        <time>2015-02-22T14:52:56Z</time>
      </trkpt>
      <trkpt lat="43.60168" lon="6.22541">
        <ele>464.45</ele>
        <time>2015-02-22T14:53:00Z</time>
      </trkpt>
      <trkpt lat="43.60164" lon="6.22528">
        <ele>463.97</ele>
        <time>2015-02-22T14:53:05Z</time>
      </trkpt>
      <trkpt lat="43.60152" lon="6.22498">
        <ele>463.97</ele>
        <time>2015-02-22T14:53:19Z</time>
      </trkpt>
      <trkpt lat="43.60148" lon="6.22486">
        <ele>463.01</ele>
        <time>2015-02-22T14:53:25Z</time>
      </trkpt>
      <trkpt lat="43.6014" lon="6.22468">
        <ele>463.01</ele>
        <time>2015-02-22T14:53:39Z</time>
      </trkpt>
      <trkpt lat="43.60136" lon="6.22463">
        <ele>463.01</ele>
        <time>2015-02-22T14:53:44Z</time>
      </trkpt>
      <trkpt lat="43.60134" lon="6.22458">
        <ele>463.01</ele>
        <time>2015-02-22T14:53:47Z</time>
      </trkpt>
      <trkpt lat="43.60121" lon="6.22435">
        <ele>463.97</ele>
        <time>2015-02-22T14:53:59Z</time>
      </trkpt>
      <trkpt lat="43.601" lon="6.22386">
        <ele>465.42</ele>
        <time>2015-02-22T14:54:13Z</time>
      </trkpt>
      <trkpt lat="43.60094" lon="6.22365">
        <ele>466.38</ele>
        <time>2015-02-22T14:54:20Z</time>
      </trkpt>
      <trkpt lat="43.60089" lon="6.22357">
        <ele>466.38</ele>
        <time>2015-02-22T14:54:25Z</time>
      </trkpt>
      <trkpt lat="43.60081" lon="6.22338">
        <ele>466.38</ele>
        <time>2015-02-22T14:54:36Z</time>
      </trkpt>
      <trkpt lat="43.60076" lon="6.22322">
        <ele>465.9</ele>
        <time>2015-02-22T14:54:46Z</time>
      </trkpt>
      <trkpt lat="43.60061" lon="6.22294">
        <ele>464.93</ele>
        <time>2015-02-22T14:55:02Z</time>
      </trkpt>
      <trkpt lat="43.60059" lon="6.22279">
        <ele>464.45</ele>
        <time>2015-02-22T14:55:15Z</time>
      </trkpt>
      <trkpt lat="43.6006" lon="6.22271">
        <ele>463.97</ele>
        <time>2015-02-22T14:55:20Z</time>
      </trkpt>
      <trkpt lat="43.60063" lon="6.22255">
        <ele>463.97</ele>
        <time>2015-02-22T14:55:33Z</time>
      </trkpt>
      <trkpt lat="43.60069" lon="6.2224">
        <ele>463.97</ele>
        <time>2015-02-22T14:55:47Z</time>
      </trkpt>
      <trkpt lat="43.6008" lon="6.22219">
        <ele>463.49</ele>
        <time>2015-02-22T14:56:00Z</time>
      </trkpt>
      <trkpt lat="43.60085" lon="6.22214">
        <ele>464.45</ele>
        <time>2015-02-22T14:56:06Z</time>
      </trkpt>
      <trkpt lat="43.60092" lon="6.22208">
        <ele>464.93</ele>
        <time>2015-02-22T14:56:13Z</time>
      </trkpt>
      <trkpt lat="43.60097" lon="6.22205">
        <ele>464.93</ele>
        <time>2015-02-22T14:56:17Z</time>
      </trkpt>
      <trkpt lat="43.601" lon="6.22203">
        <ele>464.93</ele>
        <time>2015-02-22T14:56:20Z</time>
      </trkpt>
      <trkpt lat="43.60104" lon="6.222">
        <ele>464.93</ele>
        <time>2015-02-22T14:56:23Z</time>
      </trkpt>
      <trkpt lat="43.60126" lon="6.22188">
        <ele>466.38</ele>
        <time>2015-02-22T14:56:39Z</time>
      </trkpt>
      <trkpt lat="43.60138" lon="6.22173">
        <ele>466.86</ele>
        <time>2015-02-22T14:56:52Z</time>
      </trkpt>
      <trkpt lat="43.60143" lon="6.22152">
        <ele>467.34</ele>
        <time>2015-02-22T14:57:06Z</time>
      </trkpt>
      <trkpt lat="43.60141" lon="6.22129">
        <ele>465.42</ele>
        <time>2015-02-22T14:57:17Z</time>
      </trkpt>
      <trkpt lat="43.60142" lon="6.22122">
        <ele>465.42</ele>
        <time>2015-02-22T14:57:21Z</time>
      </trkpt>
      <trkpt lat="43.60148" lon="6.22093">
        <ele>463.49</ele>
        <time>2015-02-22T14:57:34Z</time>
      </trkpt>
      <trkpt lat="43.60151" lon="6.22069">
        <ele>462.05</ele>
        <time>2015-02-22T14:57:47Z</time>
      </trkpt>
      <trkpt lat="43.60149" lon="6.22047">
        <ele>460.61</ele>
        <time>2015-02-22T14:58:01Z</time>
      </trkpt>
      <trkpt lat="43.60145" lon="6.22043">
        <ele>460.61</ele>
        <time>2015-02-22T14:58:05Z</time>
      </trkpt>
      <trkpt lat="43.60132" lon="6.22028">
        <ele>462.05</ele>
        <time>2015-02-22T14:58:20Z</time>
      </trkpt>
      <trkpt lat="43.60127" lon="6.22014">
        <ele>463.49</ele>
        <time>2015-02-22T14:58:30Z</time>
      </trkpt>
      <trkpt lat="43.6013" lon="6.22002">
        <ele>463.49</ele>
        <time>2015-02-22T14:58:37Z</time>
      </trkpt>
      <trkpt lat="43.60122" lon="6.21987">
        <ele>463.97</ele>
        <time>2015-02-22T14:58:46Z</time>
      </trkpt>
      <trkpt lat="43.60119" lon="6.21989">
        <ele>464.45</ele>
        <time>2015-02-22T14:58:48Z</time>
      </trkpt>
      <trkpt lat="43.60096" lon="6.21966">
        <ele>467.34</ele>
        <time>2015-02-22T14:58:59Z</time>
      </trkpt>
      <trkpt lat="43.60076" lon="6.21916">
        <ele>470.7</ele>
        <time>2015-02-22T14:59:11Z</time>
      </trkpt>
      <trkpt lat="43.60074" lon="6.21911">
        <ele>470.7</ele>
        <time>2015-02-22T14:59:12Z</time>
      </trkpt>
      <trkpt lat="43.60072" lon="6.21906">
        <ele>471.18</ele>
        <time>2015-02-22T14:59:13Z</time>
      </trkpt>
      <trkpt lat="43.6005" lon="6.2184">
        <ele>472.14</ele>
        <time>2015-02-22T14:59:26Z</time>
      </trkpt>
      <trkpt lat="43.60037" lon="6.21798">
        <ele>472.14</ele>
        <time>2015-02-22T14:59:34Z</time>
      </trkpt>
      <trkpt lat="43.60036" lon="6.21793">
        <ele>472.14</ele>
        <time>2015-02-22T14:59:35Z</time>
      </trkpt>
      <trkpt lat="43.60035" lon="6.21788">
        <ele>471.66</ele>
        <time>2015-02-22T14:59:36Z</time>
      </trkpt>
      <trkpt lat="43.60034" lon="6.21784">
        <ele>471.66</ele>
        <time>2015-02-22T14:59:37Z</time>
      </trkpt>
      <trkpt lat="43.60032" lon="6.21779">
        <ele>471.66</ele>
        <time>2015-02-22T14:59:38Z</time>
      </trkpt>
      <trkpt lat="43.60031" lon="6.21774">
        <ele>471.66</ele>
        <time>2015-02-22T14:59:39Z</time>
      </trkpt>
      <trkpt lat="43.6003" lon="6.21769">
        <ele>471.66</ele>
        <time>2015-02-22T14:59:40Z</time>
      </trkpt>
      <trkpt lat="43.60029" lon="6.21765">
        <ele>471.18</ele>
        <time>2015-02-22T14:59:41Z</time>
      </trkpt>
      <trkpt lat="43.60027" lon="6.2176">
        <ele>471.18</ele>
        <time>2015-02-22T14:59:42Z</time>
      </trkpt>
      <trkpt lat="43.60025" lon="6.21756">
        <ele>471.18</ele>
        <time>2015-02-22T14:59:43Z</time>
      </trkpt>
      <trkpt lat="43.6001" lon="6.21731">
        <ele>470.7</ele>
        <time>2015-02-22T14:59:52Z</time>
      </trkpt>
      <trkpt lat="43.6001" lon="6.21728">
        <ele>471.66</ele>
        <time>2015-02-22T14:59:53Z</time>
      </trkpt>
      <trkpt lat="43.60009" lon="6.21723">
        <ele>470.7</ele>
        <time>2015-02-22T14:59:55Z</time>
      </trkpt>
      <trkpt lat="43.60007" lon="6.21708">
        <ele>471.18</ele>
        <time>2015-02-22T15:00:01Z</time>
      </trkpt>
      <trkpt lat="43.60006" lon="6.21705">
        <ele>471.18</ele>
        <time>2015-02-22T15:00:02Z</time>
      </trkpt>
      <trkpt lat="43.60005" lon="6.21703">
        <ele>471.18</ele>
        <time>2015-02-22T15:00:03Z</time>
      </trkpt>
      <trkpt lat="43.59994" lon="6.21675">
        <ele>471.66</ele>
        <time>2015-02-22T15:00:12Z</time>
      </trkpt>
      <trkpt lat="43.59976" lon="6.21617">
        <ele>472.63</ele>
        <time>2015-02-22T15:00:24Z</time>
      </trkpt>
      <trkpt lat="43.59966" lon="6.21582">
        <ele>472.14</ele>
        <time>2015-02-22T15:00:34Z</time>
      </trkpt>
      <trkpt lat="43.59968" lon="6.21576">
        <ele>471.66</ele>
        <time>2015-02-22T15:00:50Z</time>
      </trkpt>
      <trkpt lat="43.5996" lon="6.2156">
        <ele>472.14</ele>
        <time>2015-02-22T15:01:04Z</time>
      </trkpt>
      <trkpt lat="43.59957" lon="6.21554">
        <ele>472.14</ele>
        <time>2015-02-22T15:01:08Z</time>
      </trkpt>
      <trkpt lat="43.59955" lon="6.21552">
        <ele>472.14</ele>
        <time>2015-02-22T15:01:09Z</time>
      </trkpt>
      <trkpt lat="43.59954" lon="6.21551">
        <ele>472.14</ele>
        <time>2015-02-22T15:01:10Z</time>
      </trkpt>
      <trkpt lat="43.59947" lon="6.21546">
        <ele>472.14</ele>
        <time>2015-02-22T15:01:17Z</time>
      </trkpt>
      <trkpt lat="43.59945" lon="6.21545">
        <ele>472.14</ele>
        <time>2015-02-22T15:01:18Z</time>
      </trkpt>
      <trkpt lat="43.59944" lon="6.21544">
        <ele>472.14</ele>
        <time>2015-02-22T15:01:19Z</time>
      </trkpt>
      <trkpt lat="43.59935" lon="6.21525">
        <ele>472.14</ele>
        <time>2015-02-22T15:01:32Z</time>
      </trkpt>
      <trkpt lat="43.59935" lon="6.21523">
        <ele>472.14</ele>
        <time>2015-02-22T15:01:33Z</time>
      </trkpt>
      <trkpt lat="43.5992" lon="6.215">
        <ele>471.18</ele>
        <time>2015-02-22T15:01:48Z</time>
      </trkpt>
      <trkpt lat="43.59919" lon="6.21498">
        <ele>471.18</ele>
        <time>2015-02-22T15:01:49Z</time>
      </trkpt>
      <trkpt lat="43.59919" lon="6.21496">
        <ele>470.7</ele>
        <time>2015-02-22T15:01:50Z</time>
      </trkpt>
      <trkpt lat="43.59918" lon="6.21493">
        <ele>471.18</ele>
        <time>2015-02-22T15:01:51Z</time>
      </trkpt>
      <trkpt lat="43.59917" lon="6.2149">
        <ele>471.18</ele>
        <time>2015-02-22T15:01:52Z</time>
      </trkpt>
      <trkpt lat="43.59916" lon="6.21486">
        <ele>472.14</ele>
        <time>2015-02-22T15:01:53Z</time>
      </trkpt>
      <trkpt lat="43.599" lon="6.21444">
        <ele>472.63</ele>
        <time>2015-02-22T15:02:04Z</time>
      </trkpt>
      <trkpt lat="43.59877" lon="6.21409">
        <ele>473.59</ele>
        <time>2015-02-22T15:02:15Z</time>
      </trkpt>
      <trkpt lat="43.59858" lon="6.2139">
        <ele>473.11</ele>
        <time>2015-02-22T15:02:22Z</time>
      </trkpt>
      <trkpt lat="43.59855" lon="6.21391">
        <ele>473.59</ele>
        <time>2015-02-22T15:02:23Z</time>
      </trkpt>
      <trkpt lat="43.59852" lon="6.21392">
        <ele>473.11</ele>
        <time>2015-02-22T15:02:24Z</time>
      </trkpt>
      <trkpt lat="43.59819" lon="6.21392">
        <ele>472.63</ele>
        <time>2015-02-22T15:02:34Z</time>
      </trkpt>
      <trkpt lat="43.59808" lon="6.21387">
        <ele>473.11</ele>
        <time>2015-02-22T15:02:37Z</time>
      </trkpt>
      <trkpt lat="43.59804" lon="6.21388">
        <ele>472.63</ele>
        <time>2015-02-22T15:02:38Z</time>
      </trkpt>
      <trkpt lat="43.59763" lon="6.21393">
        <ele>471.66</ele>
        <time>2015-02-22T15:02:49Z</time>
      </trkpt>
      <trkpt lat="43.59724" lon="6.21412">
        <ele>469.74</ele>
        <time>2015-02-22T15:03:00Z</time>
      </trkpt>
      <trkpt lat="43.59691" lon="6.21411">
        <ele>469.74</ele>
        <time>2015-02-22T15:03:09Z</time>
      </trkpt>
      <trkpt lat="43.59668" lon="6.21386">
        <ele>469.74</ele>
        <time>2015-02-22T15:03:16Z</time>
      </trkpt>
      <trkpt lat="43.59665" lon="6.21381">
        <ele>469.74</ele>
        <time>2015-02-22T15:03:17Z</time>
      </trkpt>
      <trkpt lat="43.59642" lon="6.21349">
        <ele>470.7</ele>
        <time>2015-02-22T15:03:23Z</time>
      </trkpt>
      <trkpt lat="43.59638" lon="6.21346">
        <ele>471.18</ele>
        <time>2015-02-22T15:03:24Z</time>
      </trkpt>
      <trkpt lat="43.59633" lon="6.21344">
        <ele>471.18</ele>
        <time>2015-02-22T15:03:25Z</time>
      </trkpt>
      <trkpt lat="43.5959" lon="6.21339">
        <ele>470.7</ele>
        <time>2015-02-22T15:03:34Z</time>
      </trkpt>
      <trkpt lat="43.59558" lon="6.21341">
        <ele>469.74</ele>
        <time>2015-02-22T15:03:42Z</time>
      </trkpt>
      <trkpt lat="43.59539" lon="6.2136">
        <ele>468.78</ele>
        <time>2015-02-22T15:03:50Z</time>
      </trkpt>
      <trkpt lat="43.59537" lon="6.21364">
        <ele>468.78</ele>
        <time>2015-02-22T15:03:51Z</time>
      </trkpt>
      <trkpt lat="43.59536" lon="6.21366">
        <ele>468.78</ele>
        <time>2015-02-22T15:03:52Z</time>
      </trkpt>
      <trkpt lat="43.59534" lon="6.21368">
        <ele>469.26</ele>
        <time>2015-02-22T15:03:53Z</time>
      </trkpt>
      <trkpt lat="43.59532" lon="6.21371">
        <ele>468.78</ele>
        <time>2015-02-22T15:03:54Z</time>
      </trkpt>
      <trkpt lat="43.59531" lon="6.21373">
        <ele>468.3</ele>
        <time>2015-02-22T15:03:55Z</time>
      </trkpt>
      <trkpt lat="43.59529" lon="6.21374">
        <ele>468.3</ele>
        <time>2015-02-22T15:03:56Z</time>
      </trkpt>
      <trkpt lat="43.59518" lon="6.21379">
        <ele>468.78</ele>
        <time>2015-02-22T15:04:07Z</time>
      </trkpt>
      <trkpt lat="43.59515" lon="6.21374">
        <ele>468.78</ele>
        <time>2015-02-22T15:04:11Z</time>
      </trkpt>
      <trkpt lat="43.59508" lon="6.21365">
        <ele>468.3</ele>
        <time>2015-02-22T15:04:25Z</time>
      </trkpt>
      <trkpt lat="43.59502" lon="6.21362">
        <ele>468.78</ele>
        <time>2015-02-22T15:04:45Z</time>
      </trkpt>
      <trkpt lat="43.59492" lon="6.21355">
        <ele>468.78</ele>
        <time>2015-02-22T15:04:59Z</time>
      </trkpt>
      <trkpt lat="43.59488" lon="6.21353">
        <ele>468.3</ele>
        <time>2015-02-22T15:05:04Z</time>
      </trkpt>
      <trkpt lat="43.59479" lon="6.21328">
        <ele>469.26</ele>
        <time>2015-02-22T15:05:18Z</time>
      </trkpt>
      <trkpt lat="43.59479" lon="6.21325">
        <ele>469.26</ele>
        <time>2015-02-22T15:05:20Z</time>
      </trkpt>
      <trkpt lat="43.59491" lon="6.21308">
        <ele>469.26</ele>
        <time>2015-02-22T15:05:33Z</time>
      </trkpt>
      <trkpt lat="43.59503" lon="6.21301">
        <ele>469.26</ele>
        <time>2015-02-22T15:05:47Z</time>
      </trkpt>
      <trkpt lat="43.59505" lon="6.21298">
        <ele>468.78</ele>
        <time>2015-02-22T15:05:50Z</time>
      </trkpt>
      <trkpt lat="43.59509" lon="6.21292">
        <ele>469.74</ele>
        <time>2015-02-22T15:05:55Z</time>
      </trkpt>
      <trkpt lat="43.59512" lon="6.21289">
        <ele>469.74</ele>
        <time>2015-02-22T15:05:58Z</time>
      </trkpt>
      <trkpt lat="43.59525" lon="6.21278">
        <ele>469.74</ele>
        <time>2015-02-22T15:06:08Z</time>
      </trkpt>
      <trkpt lat="43.59537" lon="6.21258">
        <ele>470.22</ele>
        <time>2015-02-22T15:06:24Z</time>
      </trkpt>
      <trkpt lat="43.59538" lon="6.21246">
        <ele>469.74</ele>
        <time>2015-02-22T15:06:36Z</time>
      </trkpt>
      <trkpt lat="43.59525" lon="6.21228">
        <ele>469.74</ele>
        <time>2015-02-22T15:06:51Z</time>
      </trkpt>
      <trkpt lat="43.59513" lon="6.21206">
        <ele>469.26</ele>
        <time>2015-02-22T15:07:06Z</time>
      </trkpt>
      <trkpt lat="43.59506" lon="6.21196">
        <ele>469.26</ele>
        <time>2015-02-22T15:07:21Z</time>
      </trkpt>
      <trkpt lat="43.59503" lon="6.21193">
        <ele>469.74</ele>
        <time>2015-02-22T15:07:24Z</time>
      </trkpt>
      <trkpt lat="43.59495" lon="6.2118">
        <ele>469.74</ele>
        <time>2015-02-22T15:07:31Z</time>
      </trkpt>
      <trkpt lat="43.59493" lon="6.21173">
        <ele>469.26</ele>
        <time>2015-02-22T15:07:35Z</time>
      </trkpt>
      <trkpt lat="43.59478" lon="6.2115">
        <ele>469.26</ele>
        <time>2015-02-22T15:07:52Z</time>
      </trkpt>
      <trkpt lat="43.59474" lon="6.21148">
        <ele>469.26</ele>
        <time>2015-02-22T15:07:56Z</time>
      </trkpt>
      <trkpt lat="43.59468" lon="6.21141">
        <ele>469.26</ele>
        <time>2015-02-22T15:07:59Z</time>
      </trkpt>
      <trkpt lat="43.59449" lon="6.21137">
        <ele>470.22</ele>
        <time>2015-02-22T15:08:15Z</time>
      </trkpt>
      <trkpt lat="43.59439" lon="6.21145">
        <ele>470.22</ele>
        <time>2015-02-22T15:08:25Z</time>
      </trkpt>
      <trkpt lat="43.59433" lon="6.21148">
        <ele>470.7</ele>
        <time>2015-02-22T15:08:29Z</time>
      </trkpt>
      <trkpt lat="43.59417" lon="6.21134">
        <ele>470.7</ele>
        <time>2015-02-22T15:08:44Z</time>
      </trkpt>
      <trkpt lat="43.59416" lon="6.21131">
        <ele>471.18</ele>
        <time>2015-02-22T15:08:46Z</time>
      </trkpt>
      <trkpt lat="43.59411" lon="6.21124">
        <ele>471.66</ele>
        <time>2015-02-22T15:08:52Z</time>
      </trkpt>
      <trkpt lat="43.59404" lon="6.21096">
        <ele>471.18</ele>
        <time>2015-02-22T15:09:06Z</time>
      </trkpt>
      <trkpt lat="43.59403" lon="6.21093">
        <ele>471.18</ele>
        <time>2015-02-22T15:09:08Z</time>
      </trkpt>
      <trkpt lat="43.59398" lon="6.21069">
        <ele>470.7</ele>
        <time>2015-02-22T15:09:22Z</time>
      </trkpt>
      <trkpt lat="43.59398" lon="6.21066">
        <ele>470.7</ele>
        <time>2015-02-22T15:09:24Z</time>
      </trkpt>
      <trkpt lat="43.59407" lon="6.21042">
        <ele>470.7</ele>
        <time>2015-02-22T15:09:39Z</time>
      </trkpt>
      <trkpt lat="43.59418" lon="6.21026">
        <ele>471.66</ele>
        <time>2015-02-22T15:09:54Z</time>
      </trkpt>
      <trkpt lat="43.5942" lon="6.21015">
        <ele>471.18</ele>
        <time>2015-02-22T15:10:01Z</time>
      </trkpt>
      <trkpt lat="43.59422" lon="6.21012">
        <ele>470.7</ele>
        <time>2015-02-22T15:10:03Z</time>
      </trkpt>
      <trkpt lat="43.59422" lon="6.21008">
        <ele>470.7</ele>
        <time>2015-02-22T15:10:06Z</time>
      </trkpt>
      <trkpt lat="43.59408" lon="6.20985">
        <ele>471.18</ele>
        <time>2015-02-22T15:10:19Z</time>
      </trkpt>
      <trkpt lat="43.59377" lon="6.20957">
        <ele>471.18</ele>
        <time>2015-02-22T15:10:29Z</time>
      </trkpt>
      <trkpt lat="43.59384" lon="6.20934">
        <ele>470.22</ele>
        <time>2015-02-22T15:10:40Z</time>
      </trkpt>
      <trkpt lat="43.59397" lon="6.20922">
        <ele>469.26</ele>
        <time>2015-02-22T15:10:51Z</time>
      </trkpt>
      <trkpt lat="43.59417" lon="6.20909">
        <ele>468.3</ele>
        <time>2015-02-22T15:11:06Z</time>
      </trkpt>
      <trkpt lat="43.59437" lon="6.20891">
        <ele>467.34</ele>
        <time>2015-02-22T15:11:20Z</time>
      </trkpt>
      <trkpt lat="43.59458" lon="6.20872">
        <ele>465.9</ele>
        <time>2015-02-22T15:11:35Z</time>
      </trkpt>
      <trkpt lat="43.59466" lon="6.20847">
        <ele>465.42</ele>
        <time>2015-02-22T15:11:47Z</time>
      </trkpt>
      <trkpt lat="43.59466" lon="6.20845">
        <ele>465.42</ele>
        <time>2015-02-22T15:11:48Z</time>
      </trkpt>
      <trkpt lat="43.59488" lon="6.20819">
        <ele>465.42</ele>
        <time>2015-02-22T15:12:02Z</time>
      </trkpt>
      <trkpt lat="43.59513" lon="6.20781">
        <ele>464.93</ele>
        <time>2015-02-22T15:12:13Z</time>
      </trkpt>
      <trkpt lat="43.59555" lon="6.20734">
        <ele>466.38</ele>
        <time>2015-02-22T15:12:26Z</time>
      </trkpt>
      <trkpt lat="43.5959" lon="6.20707">
        <ele>467.82</ele>
        <time>2015-02-22T15:12:37Z</time>
      </trkpt>
      <trkpt lat="43.59594" lon="6.20703">
        <ele>467.82</ele>
        <time>2015-02-22T15:12:38Z</time>
      </trkpt>
      <trkpt lat="43.59625" lon="6.20668">
        <ele>469.26</ele>
        <time>2015-02-22T15:12:49Z</time>
      </trkpt>
      <trkpt lat="43.59653" lon="6.20637">
        <ele>468.3</ele>
        <time>2015-02-22T15:12:59Z</time>
      </trkpt>
      <trkpt lat="43.5968" lon="6.20606">
        <ele>469.26</ele>
        <time>2015-02-22T15:13:11Z</time>
      </trkpt>
      <trkpt lat="43.59715" lon="6.20569">
        <ele>469.74</ele>
        <time>2015-02-22T15:13:22Z</time>
      </trkpt>
      <trkpt lat="43.59753" lon="6.2054">
        <ele>469.74</ele>
        <time>2015-02-22T15:13:34Z</time>
      </trkpt>
      <trkpt lat="43.5978" lon="6.20519">
        <ele>470.22</ele>
        <time>2015-02-22T15:13:44Z</time>
      </trkpt>
      <trkpt lat="43.59806" lon="6.20502">
        <ele>471.18</ele>
        <time>2015-02-22T15:13:54Z</time>
      </trkpt>
      <trkpt lat="43.5984" lon="6.20474">
        <ele>469.26</ele>
        <time>2015-02-22T15:14:06Z</time>
      </trkpt>
      <trkpt lat="43.59857" lon="6.20461">
        <ele>469.74</ele>
        <time>2015-02-22T15:14:17Z</time>
      </trkpt>
      <trkpt lat="43.59879" lon="6.20454">
        <ele>468.78</ele>
        <time>2015-02-22T15:14:32Z</time>
      </trkpt>
      <trkpt lat="43.59881" lon="6.20454">
        <ele>468.78</ele>
        <time>2015-02-22T15:14:33Z</time>
      </trkpt>
      <trkpt lat="43.59882" lon="6.20455">
        <ele>468.78</ele>
        <time>2015-02-22T15:14:34Z</time>
      </trkpt>
      <trkpt lat="43.59894" lon="6.20457">
        <ele>467.82</ele>
        <time>2015-02-22T15:14:42Z</time>
      </trkpt>
      <trkpt lat="43.59905" lon="6.20458">
        <ele>467.82</ele>
        <time>2015-02-22T15:14:50Z</time>
      </trkpt>
      <trkpt lat="43.59929" lon="6.20452">
        <ele>467.34</ele>
        <time>2015-02-22T15:15:06Z</time>
      </trkpt>
      <trkpt lat="43.59948" lon="6.20447">
        <ele>467.34</ele>
        <time>2015-02-22T15:15:17Z</time>
      </trkpt>
      <trkpt lat="43.5995" lon="6.20445">
        <ele>467.34</ele>
        <time>2015-02-22T15:15:19Z</time>
      </trkpt>
      <trkpt lat="43.59955" lon="6.20442">
        <ele>467.82</ele>
        <time>2015-02-22T15:15:23Z</time>
      </trkpt>
      <trkpt lat="43.59957" lon="6.20442">
        <ele>467.82</ele>
        <time>2015-02-22T15:15:24Z</time>
      </trkpt>
      <trkpt lat="43.5997" lon="6.20433">
        <ele>467.82</ele>
        <time>2015-02-22T15:15:35Z</time>
      </trkpt>
      <trkpt lat="43.59971" lon="6.20432">
        <ele>467.82</ele>
        <time>2015-02-22T15:15:36Z</time>
      </trkpt>
      <trkpt lat="43.59973" lon="6.20431">
        <ele>468.3</ele>
        <time>2015-02-22T15:15:37Z</time>
      </trkpt>
      <trkpt lat="43.59987" lon="6.20413">
        <ele>468.3</ele>
        <time>2015-02-22T15:15:50Z</time>
      </trkpt>
      <trkpt lat="43.59994" lon="6.20405">
        <ele>468.3</ele>
        <time>2015-02-22T15:15:56Z</time>
      </trkpt>
      <trkpt lat="43.6" lon="6.20397">
        <ele>468.3</ele>
        <time>2015-02-22T15:16:03Z</time>
      </trkpt>
      <trkpt lat="43.60003" lon="6.20392">
        <ele>467.82</ele>
        <time>2015-02-22T15:16:06Z</time>
      </trkpt>
      <trkpt lat="43.60005" lon="6.20389">
        <ele>468.3</ele>
        <time>2015-02-22T15:16:07Z</time>
      </trkpt>
      <trkpt lat="43.60022" lon="6.20367">
        <ele>469.26</ele>
        <time>2015-02-22T15:16:20Z</time>
      </trkpt>
      <trkpt lat="43.60026" lon="6.20359">
        <ele>469.26</ele>
        <time>2015-02-22T15:16:25Z</time>
      </trkpt>
      <trkpt lat="43.60028" lon="6.20357">
        <ele>469.26</ele>
        <time>2015-02-22T15:16:26Z</time>
      </trkpt>
      <trkpt lat="43.60029" lon="6.20355">
        <ele>469.26</ele>
        <time>2015-02-22T15:16:27Z</time>
      </trkpt>
      <trkpt lat="43.60041" lon="6.20331">
        <ele>470.22</ele>
        <time>2015-02-22T15:16:40Z</time>
      </trkpt>
      <trkpt lat="43.60056" lon="6.2031">
        <ele>471.18</ele>
        <time>2015-02-22T15:16:54Z</time>
      </trkpt>
      <trkpt lat="43.60073" lon="6.20301">
        <ele>471.66</ele>
        <time>2015-02-22T15:17:05Z</time>
      </trkpt>
      <trkpt lat="43.60077" lon="6.203">
        <ele>472.14</ele>
        <time>2015-02-22T15:17:08Z</time>
      </trkpt>
      <trkpt lat="43.60078" lon="6.203">
        <ele>471.66</ele>
        <time>2015-02-22T15:17:09Z</time>
      </trkpt>
      <trkpt lat="43.60079" lon="6.203">
        <ele>472.14</ele>
        <time>2015-02-22T15:17:10Z</time>
      </trkpt>
      <trkpt lat="43.60081" lon="6.203">
        <ele>471.66</ele>
        <time>2015-02-22T15:17:11Z</time>
      </trkpt>
      <trkpt lat="43.60088" lon="6.20299">
        <ele>471.66</ele>
        <time>2015-02-22T15:17:15Z</time>
      </trkpt>
      <trkpt lat="43.60104" lon="6.20281">
        <ele>473.11</ele>
        <time>2015-02-22T15:17:29Z</time>
      </trkpt>
      <trkpt lat="43.60116" lon="6.20257">
        <ele>473.59</ele>
        <time>2015-02-22T15:17:44Z</time>
      </trkpt>
      <trkpt lat="43.60119" lon="6.2025">
        <ele>473.59</ele>
        <time>2015-02-22T15:17:47Z</time>
      </trkpt>
      <trkpt lat="43.60119" lon="6.20249">
        <ele>473.59</ele>
        <time>2015-02-22T15:17:48Z</time>
      </trkpt>
      <trkpt lat="43.60121" lon="6.20244">
        <ele>473.59</ele>
        <time>2015-02-22T15:17:51Z</time>
      </trkpt>
      <trkpt lat="43.60136" lon="6.20228">
        <ele>473.59</ele>
        <time>2015-02-22T15:18:06Z</time>
      </trkpt>
      <trkpt lat="43.6014" lon="6.20217">
        <ele>473.59</ele>
        <time>2015-02-22T15:18:12Z</time>
      </trkpt>
      <trkpt lat="43.60151" lon="6.20195">
        <ele>474.55</ele>
        <time>2015-02-22T15:18:25Z</time>
      </trkpt>
      <trkpt lat="43.60153" lon="6.20192">
        <ele>474.55</ele>
        <time>2015-02-22T15:18:27Z</time>
      </trkpt>
      <trkpt lat="43.60154" lon="6.2019">
        <ele>474.55</ele>
        <time>2015-02-22T15:18:28Z</time>
      </trkpt>
      <trkpt lat="43.60158" lon="6.20183">
        <ele>474.55</ele>
        <time>2015-02-22T15:18:33Z</time>
      </trkpt>
      <trkpt lat="43.60162" lon="6.20172">
        <ele>474.07</ele>
        <time>2015-02-22T15:18:39Z</time>
      </trkpt>
      <trkpt lat="43.60168" lon="6.20165">
        <ele>474.07</ele>
        <time>2015-02-22T15:18:44Z</time>
      </trkpt>
      <trkpt lat="43.6017" lon="6.20161">
        <ele>474.07</ele>
        <time>2015-02-22T15:18:47Z</time>
      </trkpt>
      <trkpt lat="43.60184" lon="6.20148">
        <ele>474.55</ele>
        <time>2015-02-22T15:18:58Z</time>
      </trkpt>
      <trkpt lat="43.60206" lon="6.20142">
        <ele>475.51</ele>
        <time>2015-02-22T15:19:14Z</time>
      </trkpt>
      <trkpt lat="43.60223" lon="6.20139">
        <ele>475.03</ele>
        <time>2015-02-22T15:19:26Z</time>
      </trkpt>
      <trkpt lat="43.60246" lon="6.20134">
        <ele>474.55</ele>
        <time>2015-02-22T15:19:40Z</time>
      </trkpt>
      <trkpt lat="43.60264" lon="6.20132">
        <ele>474.55</ele>
        <time>2015-02-22T15:19:52Z</time>
      </trkpt>
      <trkpt lat="43.60273" lon="6.20129">
        <ele>474.07</ele>
        <time>2015-02-22T15:20:05Z</time>
      </trkpt>
      <trkpt lat="43.60294" lon="6.2012">
        <ele>473.11</ele>
        <time>2015-02-22T15:20:19Z</time>
      </trkpt>
      <trkpt lat="43.60311" lon="6.20107">
        <ele>472.14</ele>
        <time>2015-02-22T15:20:30Z</time>
      </trkpt>
      <trkpt lat="43.60326" lon="6.20076">
        <ele>470.22</ele>
        <time>2015-02-22T15:20:47Z</time>
      </trkpt>
      <trkpt lat="43.60346" lon="6.20055">
        <ele>469.26</ele>
        <time>2015-02-22T15:21:01Z</time>
      </trkpt>
      <trkpt lat="43.60365" lon="6.20023">
        <ele>467.82</ele>
        <time>2015-02-22T15:21:14Z</time>
      </trkpt>
      <trkpt lat="43.60374" lon="6.20013">
        <ele>466.86</ele>
        <time>2015-02-22T15:21:18Z</time>
      </trkpt>
      <trkpt lat="43.60404" lon="6.19984">
        <ele>463.97</ele>
        <time>2015-02-22T15:21:29Z</time>
      </trkpt>
      <trkpt lat="43.60427" lon="6.19955">
        <ele>465.42</ele>
        <time>2015-02-22T15:21:37Z</time>
      </trkpt>
      <trkpt lat="43.60438" lon="6.19943">
        <ele>466.38</ele>
        <time>2015-02-22T15:21:40Z</time>
      </trkpt>
      <trkpt lat="43.60443" lon="6.19939">
        <ele>466.38</ele>
        <time>2015-02-22T15:21:41Z</time>
      </trkpt>
      <trkpt lat="43.60447" lon="6.19934">
        <ele>466.86</ele>
        <time>2015-02-22T15:21:42Z</time>
      </trkpt>
      <trkpt lat="43.60471" lon="6.19909">
        <ele>466.86</ele>
        <time>2015-02-22T15:21:47Z</time>
      </trkpt>
      <trkpt lat="43.60476" lon="6.19904">
        <ele>466.86</ele>
        <time>2015-02-22T15:21:48Z</time>
      </trkpt>
      <trkpt lat="43.60493" lon="6.19894">
        <ele>467.34</ele>
        <time>2015-02-22T15:21:51Z</time>
      </trkpt>
      <trkpt lat="43.60499" lon="6.19892">
        <ele>467.82</ele>
        <time>2015-02-22T15:21:52Z</time>
      </trkpt>
      <trkpt lat="43.60506" lon="6.19891">
        <ele>467.82</ele>
        <time>2015-02-22T15:21:53Z</time>
      </trkpt>
      <trkpt lat="43.60512" lon="6.1989">
        <ele>468.3</ele>
        <time>2015-02-22T15:21:54Z</time>
      </trkpt>
      <trkpt lat="43.60518" lon="6.19888">
        <ele>469.74</ele>
        <time>2015-02-22T15:21:55Z</time>
      </trkpt>
      <trkpt lat="43.60524" lon="6.19887">
        <ele>468.78</ele>
        <time>2015-02-22T15:21:56Z</time>
      </trkpt>
      <trkpt lat="43.60541" lon="6.19881">
        <ele>468.78</ele>
        <time>2015-02-22T15:21:59Z</time>
      </trkpt>
      <trkpt lat="43.60612" lon="6.19841">
        <ele>466.38</ele>
        <time>2015-02-22T15:22:11Z</time>
      </trkpt>
      <trkpt lat="43.60633" lon="6.19826">
        <ele>466.86</ele>
        <time>2015-02-22T15:22:15Z</time>
      </trkpt>
      <trkpt lat="43.60637" lon="6.19821">
        <ele>466.38</ele>
        <time>2015-02-22T15:22:16Z</time>
      </trkpt>
      <trkpt lat="43.60641" lon="6.19815">
        <ele>465.42</ele>
        <time>2015-02-22T15:22:17Z</time>
      </trkpt>
      <trkpt lat="43.60645" lon="6.19809">
        <ele>465.42</ele>
        <time>2015-02-22T15:22:18Z</time>
      </trkpt>
      <trkpt lat="43.60662" lon="6.19785">
        <ele>464.93</ele>
        <time>2015-02-22T15:22:22Z</time>
      </trkpt>
      <trkpt lat="43.60696" lon="6.19748">
        <ele>464.45</ele>
        <time>2015-02-22T15:22:29Z</time>
      </trkpt>
      <trkpt lat="43.60701" lon="6.19743">
        <ele>464.45</ele>
        <time>2015-02-22T15:22:30Z</time>
      </trkpt>
      <trkpt lat="43.60705" lon="6.19738">
        <ele>464.45</ele>
        <time>2015-02-22T15:22:31Z</time>
      </trkpt>
      <trkpt lat="43.60727" lon="6.19716">
        <ele>464.45</ele>
        <time>2015-02-22T15:22:38Z</time>
      </trkpt>
      <trkpt lat="43.60728" lon="6.19714">
        <ele>464.45</ele>
        <time>2015-02-22T15:22:39Z</time>
      </trkpt>
      <trkpt lat="43.60756" lon="6.19692">
        <ele>463.49</ele>
        <time>2015-02-22T15:22:51Z</time>
      </trkpt>
      <trkpt lat="43.60783" lon="6.19672">
        <ele>461.57</ele>
        <time>2015-02-22T15:23:04Z</time>
      </trkpt>
      <trkpt lat="43.60803" lon="6.1966">
        <ele>460.61</ele>
        <time>2015-02-22T15:23:14Z</time>
      </trkpt>
      <trkpt lat="43.60804" lon="6.1966">
        <ele>460.61</ele>
        <time>2015-02-22T15:23:15Z</time>
      </trkpt>
      <trkpt lat="43.60805" lon="6.19659">
        <ele>461.09</ele>
        <time>2015-02-22T15:23:16Z</time>
      </trkpt>
      <trkpt lat="43.60806" lon="6.19658">
        <ele>460.61</ele>
        <time>2015-02-22T15:23:17Z</time>
      </trkpt>
      <trkpt lat="43.60808" lon="6.19657">
        <ele>460.61</ele>
        <time>2015-02-22T15:23:18Z</time>
      </trkpt>
      <trkpt lat="43.6081" lon="6.19657">
        <ele>460.61</ele>
        <time>2015-02-22T15:23:19Z</time>
      </trkpt>
      <trkpt lat="43.60811" lon="6.19656">
        <ele>460.61</ele>
        <time>2015-02-22T15:23:20Z</time>
      </trkpt>
      <trkpt lat="43.60814" lon="6.19652">
        <ele>460.61</ele>
        <time>2015-02-22T15:23:23Z</time>
      </trkpt>
      <trkpt lat="43.60815" lon="6.1965">
        <ele>460.13</ele>
        <time>2015-02-22T15:23:24Z</time>
      </trkpt>
      <trkpt lat="43.60826" lon="6.19625">
        <ele>459.17</ele>
        <time>2015-02-22T15:23:36Z</time>
      </trkpt>
      <trkpt lat="43.60837" lon="6.19601">
        <ele>459.17</ele>
        <time>2015-02-22T15:23:46Z</time>
      </trkpt>
      <trkpt lat="43.60861" lon="6.19575">
        <ele>458.69</ele>
        <time>2015-02-22T15:23:56Z</time>
      </trkpt>
      <trkpt lat="43.60889" lon="6.19548">
        <ele>457.72</ele>
        <time>2015-02-22T15:24:05Z</time>
      </trkpt>
      <trkpt lat="43.60952" lon="6.19506">
        <ele>455.32</ele>
        <time>2015-02-22T15:24:16Z</time>
      </trkpt>
      <trkpt lat="43.60958" lon="6.195">
        <ele>455.32</ele>
        <time>2015-02-22T15:24:17Z</time>
      </trkpt>
      <trkpt lat="43.60964" lon="6.19494">
        <ele>455.32</ele>
        <time>2015-02-22T15:24:18Z</time>
      </trkpt>
      <trkpt lat="43.6097" lon="6.19486">
        <ele>454.84</ele>
        <time>2015-02-22T15:24:19Z</time>
      </trkpt>
      <trkpt lat="43.60975" lon="6.19478">
        <ele>455.32</ele>
        <time>2015-02-22T15:24:20Z</time>
      </trkpt>
      <trkpt lat="43.6098" lon="6.19468">
        <ele>455.32</ele>
        <time>2015-02-22T15:24:21Z</time>
      </trkpt>
      <trkpt lat="43.60985" lon="6.19459">
        <ele>454.36</ele>
        <time>2015-02-22T15:24:22Z</time>
      </trkpt>
      <trkpt lat="43.60989" lon="6.19448">
        <ele>454.84</ele>
        <time>2015-02-22T15:24:23Z</time>
      </trkpt>
      <trkpt lat="43.60996" lon="6.19428">
        <ele>453.88</ele>
        <time>2015-02-22T15:24:25Z</time>
      </trkpt>
      <trkpt lat="43.60998" lon="6.19418">
        <ele>454.84</ele>
        <time>2015-02-22T15:24:26Z</time>
      </trkpt>
      <trkpt lat="43.61" lon="6.19408">
        <ele>454.84</ele>
        <time>2015-02-22T15:24:27Z</time>
      </trkpt>
      <trkpt lat="43.61002" lon="6.19399">
        <ele>455.8</ele>
        <time>2015-02-22T15:24:28Z</time>
      </trkpt>
      <trkpt lat="43.61006" lon="6.1939">
        <ele>455.8</ele>
        <time>2015-02-22T15:24:29Z</time>
      </trkpt>
      <trkpt lat="43.6101" lon="6.19382">
        <ele>455.8</ele>
        <time>2015-02-22T15:24:30Z</time>
      </trkpt>
      <trkpt lat="43.61017" lon="6.19375">
        <ele>456.28</ele>
        <time>2015-02-22T15:24:31Z</time>
      </trkpt>
      <trkpt lat="43.61054" lon="6.19329">
        <ele>455.8</ele>
        <time>2015-02-22T15:24:39Z</time>
      </trkpt>
      <trkpt lat="43.61058" lon="6.19324">
        <ele>455.32</ele>
        <time>2015-02-22T15:24:40Z</time>
      </trkpt>
      <trkpt lat="43.61062" lon="6.19321">
        <ele>455.32</ele>
        <time>2015-02-22T15:24:41Z</time>
      </trkpt>
      <trkpt lat="43.61066" lon="6.19319">
        <ele>455.32</ele>
        <time>2015-02-22T15:24:42Z</time>
      </trkpt>
      <trkpt lat="43.61069" lon="6.19319">
        <ele>454.84</ele>
        <time>2015-02-22T15:24:43Z</time>
      </trkpt>
      <trkpt lat="43.61073" lon="6.19319">
        <ele>454.84</ele>
        <time>2015-02-22T15:24:44Z</time>
      </trkpt>
      <trkpt lat="43.61088" lon="6.19322">
        <ele>453.4</ele>
        <time>2015-02-22T15:24:55Z</time>
      </trkpt>
      <trkpt lat="43.61107" lon="6.19328">
        <ele>452.44</ele>
        <time>2015-02-22T15:25:09Z</time>
      </trkpt>
      <trkpt lat="43.61124" lon="6.19318">
        <ele>450.03</ele>
        <time>2015-02-22T15:25:22Z</time>
      </trkpt>
      <trkpt lat="43.6113" lon="6.19313">
        <ele>449.07</ele>
        <time>2015-02-22T15:25:28Z</time>
      </trkpt>
      <trkpt lat="43.61135" lon="6.19313">
        <ele>448.11</ele>
        <time>2015-02-22T15:25:32Z</time>
      </trkpt>
      <trkpt lat="43.61137" lon="6.19312">
        <ele>448.11</ele>
        <time>2015-02-22T15:25:33Z</time>
      </trkpt>
      <trkpt lat="43.61139" lon="6.19311">
        <ele>448.11</ele>
        <time>2015-02-22T15:25:34Z</time>
      </trkpt>
      <trkpt lat="43.61141" lon="6.1931">
        <ele>447.63</ele>
        <time>2015-02-22T15:25:35Z</time>
      </trkpt>
      <trkpt lat="43.61142" lon="6.19309">
        <ele>447.15</ele>
        <time>2015-02-22T15:25:36Z</time>
      </trkpt>
      <trkpt lat="43.61144" lon="6.19309">
        <ele>447.63</ele>
        <time>2015-02-22T15:25:37Z</time>
      </trkpt>
      <trkpt lat="43.61146" lon="6.19308">
        <ele>447.15</ele>
        <time>2015-02-22T15:25:38Z</time>
      </trkpt>
      <trkpt lat="43.61147" lon="6.19307">
        <ele>447.15</ele>
        <time>2015-02-22T15:25:39Z</time>
      </trkpt>
      <trkpt lat="43.61149" lon="6.19306">
        <ele>446.67</ele>
        <time>2015-02-22T15:25:40Z</time>
      </trkpt>
      <trkpt lat="43.61161" lon="6.19307">
        <ele>446.19</ele>
        <time>2015-02-22T15:25:48Z</time>
      </trkpt>
      <trkpt lat="43.61162" lon="6.19308">
        <ele>445.71</ele>
        <time>2015-02-22T15:25:49Z</time>
      </trkpt>
      <trkpt lat="43.61163" lon="6.19309">
        <ele>445.71</ele>
        <time>2015-02-22T15:25:50Z</time>
      </trkpt>
      <trkpt lat="43.61164" lon="6.1931">
        <ele>445.71</ele>
        <time>2015-02-22T15:25:51Z</time>
      </trkpt>
      <trkpt lat="43.61165" lon="6.19311">
        <ele>445.23</ele>
        <time>2015-02-22T15:25:52Z</time>
      </trkpt>
      <trkpt lat="43.6118" lon="6.19334">
        <ele>444.27</ele>
        <time>2015-02-22T15:26:05Z</time>
      </trkpt>
      <trkpt lat="43.61202" lon="6.19346">
        <ele>444.75</ele>
        <time>2015-02-22T15:26:18Z</time>
      </trkpt>
      <trkpt lat="43.61213" lon="6.19339">
        <ele>444.75</ele>
        <time>2015-02-22T15:26:25Z</time>
      </trkpt>
      <trkpt lat="43.61214" lon="6.19338">
        <ele>445.23</ele>
        <time>2015-02-22T15:26:26Z</time>
      </trkpt>
      <trkpt lat="43.61215" lon="6.19337">
        <ele>444.75</ele>
        <time>2015-02-22T15:26:27Z</time>
      </trkpt>
      <trkpt lat="43.61221" lon="6.19333">
        <ele>441.38</ele>
        <time>2015-02-22T15:26:31Z</time>
      </trkpt>
      <trkpt lat="43.61223" lon="6.19332">
        <ele>445.71</ele>
        <time>2015-02-22T15:26:32Z</time>
      </trkpt>
      <trkpt lat="43.61234" lon="6.19312">
        <ele>443.79</ele>
        <time>2015-02-22T15:26:43Z</time>
      </trkpt>
      <trkpt lat="43.61237" lon="6.193">
        <ele>443.31</ele>
        <time>2015-02-22T15:26:48Z</time>
      </trkpt>
      <trkpt lat="43.61255" lon="6.19273">
        <ele>441.86</ele>
        <time>2015-02-22T15:27:04Z</time>
      </trkpt>
      <trkpt lat="43.61256" lon="6.19271">
        <ele>441.86</ele>
        <time>2015-02-22T15:27:05Z</time>
      </trkpt>
      <trkpt lat="43.61267" lon="6.19259">
        <ele>440.9</ele>
        <time>2015-02-22T15:27:15Z</time>
      </trkpt>
      <trkpt lat="43.61267" lon="6.19258">
        <ele>441.38</ele>
        <time>2015-02-22T15:27:16Z</time>
      </trkpt>
      <trkpt lat="43.6127" lon="6.19255">
        <ele>440.9</ele>
        <time>2015-02-22T15:27:19Z</time>
      </trkpt>
      <trkpt lat="43.61292" lon="6.19245">
        <ele>440.42</ele>
        <time>2015-02-22T15:27:33Z</time>
      </trkpt>
      <trkpt lat="43.6131" lon="6.19236">
        <ele>439.94</ele>
        <time>2015-02-22T15:27:47Z</time>
      </trkpt>
      <trkpt lat="43.61312" lon="6.19235">
        <ele>439.94</ele>
        <time>2015-02-22T15:27:49Z</time>
      </trkpt>
      <trkpt lat="43.61333" lon="6.19225">
        <ele>438.98</ele>
        <time>2015-02-22T15:28:04Z</time>
      </trkpt>
      <trkpt lat="43.61355" lon="6.19224">
        <ele>438.98</ele>
        <time>2015-02-22T15:28:18Z</time>
      </trkpt>
      <trkpt lat="43.61377" lon="6.1922">
        <ele>438.98</ele>
        <time>2015-02-22T15:28:33Z</time>
      </trkpt>
      <trkpt lat="43.614" lon="6.19213">
        <ele>437.54</ele>
        <time>2015-02-22T15:28:47Z</time>
      </trkpt>
      <trkpt lat="43.6142" lon="6.19208">
        <ele>437.06</ele>
        <time>2015-02-22T15:29:01Z</time>
      </trkpt>
      <trkpt lat="43.61443" lon="6.19201">
        <ele>435.61</ele>
        <time>2015-02-22T15:29:17Z</time>
      </trkpt>
      <trkpt lat="43.61462" lon="6.19199">
        <ele>434.17</ele>
        <time>2015-02-22T15:29:29Z</time>
      </trkpt>
      <trkpt lat="43.61477" lon="6.19194">
        <ele>432.73</ele>
        <time>2015-02-22T15:29:40Z</time>
      </trkpt>
      <trkpt lat="43.61477" lon="6.19194">
        <ele>432.73</ele>
        <time>2015-02-22T15:29:42Z</time>
      </trkpt>
      <trkpt lat="43.61486" lon="6.19194">
        <ele>433.21</ele>
        <time>2015-02-22T15:29:48Z</time>
      </trkpt>
      <trkpt lat="43.61491" lon="6.19194">
        <ele>435.61</ele>
        <time>2015-02-22T15:29:51Z</time>
      </trkpt>
      <trkpt lat="43.61493" lon="6.19194">
        <ele>431.77</ele>
        <time>2015-02-22T15:29:52Z</time>
      </trkpt>
      <trkpt lat="43.61496" lon="6.19192">
        <ele>425.04</ele>
        <time>2015-02-22T15:29:54Z</time>
      </trkpt>
      <trkpt lat="43.61498" lon="6.19191">
        <ele>438.5</ele>
        <time>2015-02-22T15:29:55Z</time>
      </trkpt>
      <trkpt lat="43.615" lon="6.19191">
        <ele>433.69</ele>
        <time>2015-02-22T15:29:56Z</time>
      </trkpt>
      <trkpt lat="43.61503" lon="6.19189">
        <ele>432.73</ele>
        <time>2015-02-22T15:29:58Z</time>
      </trkpt>
      <trkpt lat="43.61524" lon="6.19169">
        <ele>430.33</ele>
        <time>2015-02-22T15:30:14Z</time>
      </trkpt>
      <trkpt lat="43.61536" lon="6.1916">
        <ele>428.89</ele>
        <time>2015-02-22T15:30:23Z</time>
      </trkpt>
      <trkpt lat="43.61545" lon="6.19183">
        <ele>428.89</ele>
        <time>2015-02-22T15:30:35Z</time>
      </trkpt>
      <trkpt lat="43.61551" lon="6.19217">
        <ele>429.37</ele>
        <time>2015-02-22T15:30:51Z</time>
      </trkpt>
      <trkpt lat="43.61558" lon="6.19244">
        <ele>430.33</ele>
        <time>2015-02-22T15:31:06Z</time>
      </trkpt>
      <trkpt lat="43.61559" lon="6.19249">
        <ele>430.33</ele>
        <time>2015-02-22T15:31:09Z</time>
      </trkpt>
      <trkpt lat="43.6156" lon="6.19278">
        <ele>431.29</ele>
        <time>2015-02-22T15:31:23Z</time>
      </trkpt>
      <trkpt lat="43.61557" lon="6.19303">
        <ele>432.25</ele>
        <time>2015-02-22T15:31:37Z</time>
      </trkpt>
      <trkpt lat="43.61552" lon="6.19328">
        <ele>432.25</ele>
        <time>2015-02-22T15:31:50Z</time>
      </trkpt>
      <trkpt lat="43.61553" lon="6.19357">
        <ele>432.73</ele>
        <time>2015-02-22T15:32:03Z</time>
      </trkpt>
      <trkpt lat="43.61556" lon="6.1936">
        <ele>433.21</ele>
        <time>2015-02-22T15:32:07Z</time>
      </trkpt>
      <trkpt lat="43.6156" lon="6.19364">
        <ele>433.21</ele>
        <time>2015-02-22T15:32:10Z</time>
      </trkpt>
      <trkpt lat="43.61566" lon="6.19372">
        <ele>434.65</ele>
        <time>2015-02-22T15:32:15Z</time>
      </trkpt>
      <trkpt lat="43.61568" lon="6.19375">
        <ele>434.65</ele>
        <time>2015-02-22T15:32:17Z</time>
      </trkpt>
      <trkpt lat="43.61572" lon="6.19408">
        <ele>436.58</ele>
        <time>2015-02-22T15:32:34Z</time>
      </trkpt>
      <trkpt lat="43.61572" lon="6.19417">
        <ele>437.06</ele>
        <time>2015-02-22T15:32:39Z</time>
      </trkpt>
      <trkpt lat="43.6158" lon="6.19443">
        <ele>437.06</ele>
        <time>2015-02-22T15:32:54Z</time>
      </trkpt>
      <trkpt lat="43.6158" lon="6.19447">
        <ele>437.54</ele>
        <time>2015-02-22T15:32:56Z</time>
      </trkpt>
      <trkpt lat="43.61583" lon="6.19455">
        <ele>437.06</ele>
        <time>2015-02-22T15:33:00Z</time>
      </trkpt>
      <trkpt lat="43.61586" lon="6.19464">
        <ele>436.58</ele>
        <time>2015-02-22T15:33:06Z</time>
      </trkpt>
      <trkpt lat="43.61588" lon="6.19473">
        <ele>436.58</ele>
        <time>2015-02-22T15:33:14Z</time>
      </trkpt>
      <trkpt lat="43.61591" lon="6.19499">
        <ele>436.58</ele>
        <time>2015-02-22T15:33:27Z</time>
      </trkpt>
      <trkpt lat="43.61589" lon="6.19528">
        <ele>438.02</ele>
        <time>2015-02-22T15:33:41Z</time>
      </trkpt>
      <trkpt lat="43.61595" lon="6.19557">
        <ele>440.42</ele>
        <time>2015-02-22T15:33:56Z</time>
      </trkpt>
      <trkpt lat="43.61607" lon="6.19583">
        <ele>440.42</ele>
        <time>2015-02-22T15:34:12Z</time>
      </trkpt>
      <trkpt lat="43.6161" lon="6.19594">
        <ele>440.42</ele>
        <time>2015-02-22T15:34:19Z</time>
      </trkpt>
      <trkpt lat="43.61622" lon="6.19621">
        <ele>440.42</ele>
        <time>2015-02-22T15:34:34Z</time>
      </trkpt>
      <trkpt lat="43.61628" lon="6.19649">
        <ele>441.38</ele>
        <time>2015-02-22T15:34:48Z</time>
      </trkpt>
      <trkpt lat="43.61634" lon="6.19674">
        <ele>440.9</ele>
        <time>2015-02-22T15:35:02Z</time>
      </trkpt>
      <trkpt lat="43.6164" lon="6.197">
        <ele>441.86</ele>
        <time>2015-02-22T15:35:16Z</time>
      </trkpt>
      <trkpt lat="43.61646" lon="6.19728">
        <ele>441.86</ele>
        <time>2015-02-22T15:35:28Z</time>
      </trkpt>
      <trkpt lat="43.61648" lon="6.19733">
        <ele>441.38</ele>
        <time>2015-02-22T15:35:31Z</time>
      </trkpt>
      <trkpt lat="43.61651" lon="6.19741">
        <ele>441.38</ele>
        <time>2015-02-22T15:35:35Z</time>
      </trkpt>
      <trkpt lat="43.61664" lon="6.19764">
        <ele>440.9</ele>
        <time>2015-02-22T15:35:49Z</time>
      </trkpt>
      <trkpt lat="43.61666" lon="6.19767">
        <ele>440.9</ele>
        <time>2015-02-22T15:35:51Z</time>
      </trkpt>
      <trkpt lat="43.61678" lon="6.19797">
        <ele>441.38</ele>
        <time>2015-02-22T15:36:07Z</time>
      </trkpt>
      <trkpt lat="43.6169" lon="6.19819">
        <ele>443.79</ele>
        <time>2015-02-22T15:36:21Z</time>
      </trkpt>
      <trkpt lat="43.61699" lon="6.19833">
        <ele>444.27</ele>
        <time>2015-02-22T15:36:29Z</time>
      </trkpt>
      <trkpt lat="43.61712" lon="6.19858">
        <ele>444.75</ele>
        <time>2015-02-22T15:36:43Z</time>
      </trkpt>
      <trkpt lat="43.61717" lon="6.19869">
        <ele>444.75</ele>
        <time>2015-02-22T15:36:49Z</time>
      </trkpt>
      <trkpt lat="43.61719" lon="6.19872">
        <ele>444.75</ele>
        <time>2015-02-22T15:36:51Z</time>
      </trkpt>
      <trkpt lat="43.61727" lon="6.19881">
        <ele>445.23</ele>
        <time>2015-02-22T15:36:58Z</time>
      </trkpt>
      <trkpt lat="43.61738" lon="6.19899">
        <ele>446.19</ele>
        <time>2015-02-22T15:37:10Z</time>
      </trkpt>
      <trkpt lat="43.61751" lon="6.19933">
        <ele>447.63</ele>
        <time>2015-02-22T15:37:28Z</time>
      </trkpt>
      <trkpt lat="43.61751" lon="6.19935">
        <ele>447.63</ele>
        <time>2015-02-22T15:37:29Z</time>
      </trkpt>
      <trkpt lat="43.61753" lon="6.19939">
        <ele>448.11</ele>
        <time>2015-02-22T15:37:32Z</time>
      </trkpt>
      <trkpt lat="43.61758" lon="6.19969">
        <ele>448.11</ele>
        <time>2015-02-22T15:37:46Z</time>
      </trkpt>
      <trkpt lat="43.61762" lon="6.19997">
        <ele>448.11</ele>
        <time>2015-02-22T15:38:00Z</time>
      </trkpt>
      <trkpt lat="43.61767" lon="6.20029">
        <ele>448.59</ele>
        <time>2015-02-22T15:38:16Z</time>
      </trkpt>
      <trkpt lat="43.61772" lon="6.20056">
        <ele>449.07</ele>
        <time>2015-02-22T15:38:29Z</time>
      </trkpt>
      <trkpt lat="43.61777" lon="6.20079">
        <ele>449.55</ele>
        <time>2015-02-22T15:38:43Z</time>
      </trkpt>
      <trkpt lat="43.61779" lon="6.20089">
        <ele>449.55</ele>
        <time>2015-02-22T15:38:49Z</time>
      </trkpt>
      <trkpt lat="43.61787" lon="6.20119">
        <ele>450.03</ele>
        <time>2015-02-22T15:39:07Z</time>
      </trkpt>
      <trkpt lat="43.61795" lon="6.20144">
        <ele>450.52</ele>
        <time>2015-02-22T15:39:21Z</time>
      </trkpt>
      <trkpt lat="43.618" lon="6.20179">
        <ele>451</ele>
        <time>2015-02-22T15:39:38Z</time>
      </trkpt>
      <trkpt lat="43.61801" lon="6.20186">
        <ele>451.48</ele>
        <time>2015-02-22T15:39:42Z</time>
      </trkpt>
      <trkpt lat="43.61804" lon="6.20219">
        <ele>452.92</ele>
        <time>2015-02-22T15:39:58Z</time>
      </trkpt>
      <trkpt lat="43.61804" lon="6.20228">
        <ele>452.92</ele>
        <time>2015-02-22T15:40:02Z</time>
      </trkpt>
      <trkpt lat="43.6181" lon="6.2026">
        <ele>454.84</ele>
        <time>2015-02-22T15:40:18Z</time>
      </trkpt>
      <trkpt lat="43.61812" lon="6.20268">
        <ele>454.84</ele>
        <time>2015-02-22T15:40:22Z</time>
      </trkpt>
      <trkpt lat="43.61814" lon="6.20286">
        <ele>455.8</ele>
        <time>2015-02-22T15:40:31Z</time>
      </trkpt>
      <trkpt lat="43.61818" lon="6.20315">
        <ele>455.8</ele>
        <time>2015-02-22T15:40:46Z</time>
      </trkpt>
      <trkpt lat="43.61819" lon="6.20319">
        <ele>455.8</ele>
        <time>2015-02-22T15:40:48Z</time>
      </trkpt>
      <trkpt lat="43.61822" lon="6.20332">
        <ele>455.8</ele>
        <time>2015-02-22T15:40:55Z</time>
      </trkpt>
      <trkpt lat="43.61824" lon="6.20358">
        <ele>456.76</ele>
        <time>2015-02-22T15:41:08Z</time>
      </trkpt>
      <trkpt lat="43.61826" lon="6.20369">
        <ele>456.28</ele>
        <time>2015-02-22T15:41:15Z</time>
      </trkpt>
      <trkpt lat="43.61837" lon="6.204">
        <ele>457.24</ele>
        <time>2015-02-22T15:41:30Z</time>
      </trkpt>
      <trkpt lat="43.61845" lon="6.2043">
        <ele>458.69</ele>
        <time>2015-02-22T15:41:46Z</time>
      </trkpt>
      <trkpt lat="43.61849" lon="6.20446">
        <ele>459.65</ele>
        <time>2015-02-22T15:41:56Z</time>
      </trkpt>
      <trkpt lat="43.61848" lon="6.2045">
        <ele>460.13</ele>
        <time>2015-02-22T15:41:59Z</time>
      </trkpt>
      <trkpt lat="43.61854" lon="6.20472">
        <ele>460.13</ele>
        <time>2015-02-22T15:42:13Z</time>
      </trkpt>
      <trkpt lat="43.61864" lon="6.20499">
        <ele>461.09</ele>
        <time>2015-02-22T15:42:30Z</time>
      </trkpt>
      <trkpt lat="43.61865" lon="6.20509">
        <ele>461.09</ele>
        <time>2015-02-22T15:42:34Z</time>
      </trkpt>
      <trkpt lat="43.61865" lon="6.20541">
        <ele>463.01</ele>
        <time>2015-02-22T15:42:44Z</time>
      </trkpt>
      <trkpt lat="43.61869" lon="6.20566">
        <ele>463.49</ele>
        <time>2015-02-22T15:42:50Z</time>
      </trkpt>
      <trkpt lat="43.61878" lon="6.20643">
        <ele>465.9</ele>
        <time>2015-02-22T15:43:05Z</time>
      </trkpt>
      <trkpt lat="43.61886" lon="6.20683">
        <ele>466.86</ele>
        <time>2015-02-22T15:43:17Z</time>
      </trkpt>
      <trkpt lat="43.61897" lon="6.20734">
        <ele>468.3</ele>
        <time>2015-02-22T15:43:30Z</time>
      </trkpt>
      <trkpt lat="43.61911" lon="6.20788">
        <ele>469.26</ele>
        <time>2015-02-22T15:43:42Z</time>
      </trkpt>
      <trkpt lat="43.61921" lon="6.20834">
        <ele>469.74</ele>
        <time>2015-02-22T15:43:53Z</time>
      </trkpt>
      <trkpt lat="43.61927" lon="6.20884">
        <ele>471.18</ele>
        <time>2015-02-22T15:44:05Z</time>
      </trkpt>
      <trkpt lat="43.61934" lon="6.20921">
        <ele>472.63</ele>
        <time>2015-02-22T15:44:16Z</time>
      </trkpt>
      <trkpt lat="43.61947" lon="6.20951">
        <ele>473.59</ele>
        <time>2015-02-22T15:44:24Z</time>
      </trkpt>
      <trkpt lat="43.61961" lon="6.20989">
        <ele>474.55</ele>
        <time>2015-02-22T15:44:35Z</time>
      </trkpt>
      <trkpt lat="43.6197" lon="6.21034">
        <ele>474.55</ele>
        <time>2015-02-22T15:44:45Z</time>
      </trkpt>
      <trkpt lat="43.61989" lon="6.21076">
        <ele>474.55</ele>
        <time>2015-02-22T15:44:55Z</time>
      </trkpt>
      <trkpt lat="43.61997" lon="6.211">
        <ele>474.07</ele>
        <time>2015-02-22T15:45:02Z</time>
      </trkpt>
      <trkpt lat="43.62021" lon="6.21131">
        <ele>474.55</ele>
        <time>2015-02-22T15:45:12Z</time>
      </trkpt>
      <trkpt lat="43.62061" lon="6.21143">
        <ele>475.99</ele>
        <time>2015-02-22T15:45:24Z</time>
      </trkpt>
      <trkpt lat="43.62097" lon="6.21161">
        <ele>478.39</ele>
        <time>2015-02-22T15:45:34Z</time>
      </trkpt>
      <trkpt lat="43.62122" lon="6.21201">
        <ele>481.28</ele>
        <time>2015-02-22T15:45:46Z</time>
      </trkpt>
      <trkpt lat="43.62146" lon="6.21235">
        <ele>482.24</ele>
        <time>2015-02-22T15:45:56Z</time>
      </trkpt>
      <trkpt lat="43.62165" lon="6.21261">
        <ele>483.68</ele>
        <time>2015-02-22T15:46:07Z</time>
      </trkpt>
      <trkpt lat="43.62175" lon="6.21274">
        <ele>484.16</ele>
        <time>2015-02-22T15:46:16Z</time>
      </trkpt>
      <trkpt lat="43.62184" lon="6.2129">
        <ele>485.12</ele>
        <time>2015-02-22T15:46:29Z</time>
      </trkpt>
      <trkpt lat="43.62187" lon="6.21293">
        <ele>485.12</ele>
        <time>2015-02-22T15:46:32Z</time>
      </trkpt>
      <trkpt lat="43.62199" lon="6.21311">
        <ele>485.6</ele>
        <time>2015-02-22T15:46:44Z</time>
      </trkpt>
      <trkpt lat="43.62202" lon="6.21314">
        <ele>485.12</ele>
        <time>2015-02-22T15:46:46Z</time>
      </trkpt>
      <trkpt lat="43.62217" lon="6.21337">
        <ele>486.08</ele>
        <time>2015-02-22T15:47:02Z</time>
      </trkpt>
      <trkpt lat="43.62224" lon="6.21345">
        <ele>486.08</ele>
        <time>2015-02-22T15:47:08Z</time>
      </trkpt>
      <trkpt lat="43.6224" lon="6.21365">
        <ele>487.53</ele>
        <time>2015-02-22T15:47:24Z</time>
      </trkpt>
      <trkpt lat="43.62258" lon="6.2138">
        <ele>488.49</ele>
        <time>2015-02-22T15:47:38Z</time>
      </trkpt>
      <trkpt lat="43.62282" lon="6.214">
        <ele>489.93</ele>
        <time>2015-02-22T15:47:52Z</time>
      </trkpt>
      <trkpt lat="43.62284" lon="6.21401">
        <ele>490.41</ele>
        <time>2015-02-22T15:47:54Z</time>
      </trkpt>
      <trkpt lat="43.62307" lon="6.21411">
        <ele>491.37</ele>
        <time>2015-02-22T15:48:10Z</time>
      </trkpt>
      <trkpt lat="43.62325" lon="6.21421">
        <ele>491.85</ele>
        <time>2015-02-22T15:48:23Z</time>
      </trkpt>
      <trkpt lat="43.62347" lon="6.21436">
        <ele>492.81</ele>
        <time>2015-02-22T15:48:38Z</time>
      </trkpt>
      <trkpt lat="43.62364" lon="6.21452">
        <ele>493.77</ele>
        <time>2015-02-22T15:48:51Z</time>
      </trkpt>
      <trkpt lat="43.62381" lon="6.21471">
        <ele>494.26</ele>
        <time>2015-02-22T15:49:05Z</time>
      </trkpt>
      <trkpt lat="43.62396" lon="6.21489">
        <ele>495.22</ele>
        <time>2015-02-22T15:49:19Z</time>
      </trkpt>
      <trkpt lat="43.62397" lon="6.2149">
        <ele>495.22</ele>
        <time>2015-02-22T15:49:20Z</time>
      </trkpt>
      <trkpt lat="43.62399" lon="6.21496">
        <ele>495.7</ele>
        <time>2015-02-22T15:49:38Z</time>
      </trkpt>
      <trkpt lat="43.62399" lon="6.21497">
        <ele>496.18</ele>
        <time>2015-02-22T15:50:04Z</time>
      </trkpt>
      <trkpt lat="43.624" lon="6.21497">
        <ele>496.18</ele>
        <time>2015-02-22T15:50:25Z</time>
      </trkpt>
      <trkpt lat="43.624" lon="6.21499">
        <ele>496.66</ele>
        <time>2015-02-22T15:50:52Z</time>
      </trkpt>
      <trkpt lat="43.62402" lon="6.215">
        <ele>496.18</ele>
        <time>2015-02-22T15:51:15Z</time>
      </trkpt>
      <trkpt lat="43.62402" lon="6.21499">
        <ele>496.66</ele>
        <time>2015-02-22T15:51:39Z</time>
      </trkpt>
      <trkpt lat="43.62402" lon="6.21499">
        <ele>497.14</ele>
        <time>2015-02-22T15:52:06Z</time>
      </trkpt>
      <trkpt lat="43.62402" lon="6.21499">
        <ele>496.66</ele>
        <time>2015-02-22T15:52:24Z</time>
      </trkpt>
      <trkpt lat="43.62404" lon="6.215">
        <ele>496.66</ele>
        <time>2015-02-22T15:52:26Z</time>
      </trkpt>
      <trkpt lat="43.62409" lon="6.21502">
        <ele>497.14</ele>
        <time>2015-02-22T15:52:30Z</time>
      </trkpt>
      <trkpt lat="43.6242" lon="6.21514">
        <ele>497.62</ele>
        <time>2015-02-22T15:52:41Z</time>
      </trkpt>
      <trkpt lat="43.62435" lon="6.21532">
        <ele>498.1</ele>
        <time>2015-02-22T15:52:54Z</time>
      </trkpt>
      <trkpt lat="43.62452" lon="6.21553">
        <ele>499.06</ele>
        <time>2015-02-22T15:53:09Z</time>
      </trkpt>
      <trkpt lat="43.62461" lon="6.21561">
        <ele>499.54</ele>
        <time>2015-02-22T15:53:16Z</time>
      </trkpt>
      <trkpt lat="43.62474" lon="6.21574">
        <ele>499.54</ele>
        <time>2015-02-22T15:53:26Z</time>
      </trkpt>
      <trkpt lat="43.6249" lon="6.21593">
        <ele>500.5</ele>
        <time>2015-02-22T15:53:41Z</time>
      </trkpt>
      <trkpt lat="43.62508" lon="6.21616">
        <ele>501.95</ele>
        <time>2015-02-22T15:53:59Z</time>
      </trkpt>
      <trkpt lat="43.62519" lon="6.21642">
        <ele>501.46</ele>
        <time>2015-02-22T15:54:12Z</time>
      </trkpt>
      <trkpt lat="43.62525" lon="6.21666">
        <ele>502.91</ele>
        <time>2015-02-22T15:54:26Z</time>
      </trkpt>
      <trkpt lat="43.62528" lon="6.21694">
        <ele>503.87</ele>
        <time>2015-02-22T15:54:41Z</time>
      </trkpt>
      <trkpt lat="43.62529" lon="6.21727">
        <ele>504.35</ele>
        <time>2015-02-22T15:54:56Z</time>
      </trkpt>
      <trkpt lat="43.6253" lon="6.21734">
        <ele>504.35</ele>
        <time>2015-02-22T15:55:03Z</time>
      </trkpt>
      <trkpt lat="43.62527" lon="6.21761">
        <ele>505.79</ele>
        <time>2015-02-22T15:55:18Z</time>
      </trkpt>
      <trkpt lat="43.62528" lon="6.21772">
        <ele>505.79</ele>
        <time>2015-02-22T15:55:24Z</time>
      </trkpt>
      <trkpt lat="43.6253" lon="6.21809">
        <ele>506.27</ele>
        <time>2015-02-22T15:55:39Z</time>
      </trkpt>
      <trkpt lat="43.62539" lon="6.21833">
        <ele>507.23</ele>
        <time>2015-02-22T15:55:53Z</time>
      </trkpt>
      <trkpt lat="43.6255" lon="6.21854">
        <ele>507.71</ele>
        <time>2015-02-22T15:56:08Z</time>
      </trkpt>
      <trkpt lat="43.62561" lon="6.21881">
        <ele>508.67</ele>
        <time>2015-02-22T15:56:25Z</time>
      </trkpt>
      <trkpt lat="43.62573" lon="6.21909">
        <ele>509.16</ele>
        <time>2015-02-22T15:56:41Z</time>
      </trkpt>
      <trkpt lat="43.62582" lon="6.21934">
        <ele>509.64</ele>
        <time>2015-02-22T15:56:56Z</time>
      </trkpt>
      <trkpt lat="43.62587" lon="6.21948">
        <ele>509.64</ele>
        <time>2015-02-22T15:57:05Z</time>
      </trkpt>
      <trkpt lat="43.62589" lon="6.21978">
        <ele>510.12</ele>
        <time>2015-02-22T15:57:20Z</time>
      </trkpt>
      <trkpt lat="43.62588" lon="6.21987">
        <ele>510.12</ele>
        <time>2015-02-22T15:57:26Z</time>
      </trkpt>
      <trkpt lat="43.6259" lon="6.22018">
        <ele>510.12</ele>
        <time>2015-02-22T15:57:42Z</time>
      </trkpt>
      <trkpt lat="43.6259" lon="6.22043">
        <ele>510.6</ele>
        <time>2015-02-22T15:57:55Z</time>
      </trkpt>
      <trkpt lat="43.6259" lon="6.22064">
        <ele>510.12</ele>
        <time>2015-02-22T15:58:07Z</time>
      </trkpt>
      <trkpt lat="43.62594" lon="6.22094">
        <ele>509.64</ele>
        <time>2015-02-22T15:58:21Z</time>
      </trkpt>
      <trkpt lat="43.62597" lon="6.22119">
        <ele>509.16</ele>
        <time>2015-02-22T15:58:34Z</time>
      </trkpt>
      <trkpt lat="43.62599" lon="6.22141">
        <ele>508.19</ele>
        <time>2015-02-22T15:58:44Z</time>
      </trkpt>
      <trkpt lat="43.62598" lon="6.22151">
        <ele>507.71</ele>
        <time>2015-02-22T15:58:49Z</time>
      </trkpt>
      <trkpt lat="43.62597" lon="6.22171">
        <ele>506.75</ele>
        <time>2015-02-22T15:59:03Z</time>
      </trkpt>
      <trkpt lat="43.62597" lon="6.22172">
        <ele>506.75</ele>
        <time>2015-02-22T15:59:04Z</time>
      </trkpt>
      <trkpt lat="43.62596" lon="6.22178">
        <ele>506.75</ele>
        <time>2015-02-22T15:59:08Z</time>
      </trkpt>
      <trkpt lat="43.62596" lon="6.22188">
        <ele>506.27</ele>
        <time>2015-02-22T15:59:14Z</time>
      </trkpt>
      <trkpt lat="43.626" lon="6.22204">
        <ele>505.31</ele>
        <time>2015-02-22T15:59:22Z</time>
      </trkpt>
      <trkpt lat="43.62605" lon="6.22215">
        <ele>504.35</ele>
        <time>2015-02-22T15:59:29Z</time>
      </trkpt>
      <trkpt lat="43.62607" lon="6.22218">
        <ele>504.35</ele>
        <time>2015-02-22T15:59:31Z</time>
      </trkpt>
      <trkpt lat="43.62616" lon="6.22241">
        <ele>502.43</ele>
        <time>2015-02-22T15:59:44Z</time>
      </trkpt>
      <trkpt lat="43.62626" lon="6.22266">
        <ele>501.46</ele>
        <time>2015-02-22T15:59:59Z</time>
      </trkpt>
      <trkpt lat="43.62634" lon="6.22283">
        <ele>500.02</ele>
        <time>2015-02-22T16:00:09Z</time>
      </trkpt>
      <trkpt lat="43.62639" lon="6.22298">
        <ele>499.54</ele>
        <time>2015-02-22T16:00:17Z</time>
      </trkpt>
      <trkpt lat="43.62645" lon="6.22316">
        <ele>498.1</ele>
        <time>2015-02-22T16:00:26Z</time>
      </trkpt>
      <trkpt lat="43.62645" lon="6.22322">
        <ele>497.62</ele>
        <time>2015-02-22T16:00:30Z</time>
      </trkpt>
      <trkpt lat="43.62646" lon="6.22329">
        <ele>497.14</ele>
        <time>2015-02-22T16:00:33Z</time>
      </trkpt>
      <trkpt lat="43.62646" lon="6.22338">
        <ele>497.14</ele>
        <time>2015-02-22T16:00:37Z</time>
      </trkpt>
      <trkpt lat="43.62643" lon="6.22361">
        <ele>496.66</ele>
        <time>2015-02-22T16:00:48Z</time>
      </trkpt>
      <trkpt lat="43.62649" lon="6.22372">
        <ele>496.66</ele>
        <time>2015-02-22T16:00:55Z</time>
      </trkpt>
      <trkpt lat="43.6265" lon="6.22391">
        <ele>496.66</ele>
        <time>2015-02-22T16:01:07Z</time>
      </trkpt>
      <trkpt lat="43.6265" lon="6.22398">
        <ele>496.18</ele>
        <time>2015-02-22T16:01:15Z</time>
      </trkpt>
      <trkpt lat="43.62648" lon="6.22406">
        <ele>496.18</ele>
        <time>2015-02-22T16:01:22Z</time>
      </trkpt>
      <trkpt lat="43.62646" lon="6.22415">
        <ele>495.7</ele>
        <time>2015-02-22T16:01:34Z</time>
      </trkpt>
      <trkpt lat="43.62631" lon="6.22425">
        <ele>495.7</ele>
        <time>2015-02-22T16:01:45Z</time>
      </trkpt>
      <trkpt lat="43.62628" lon="6.22427">
        <ele>495.22</ele>
        <time>2015-02-22T16:01:50Z</time>
      </trkpt>
      <trkpt lat="43.62615" lon="6.22439">
        <ele>493.29</ele>
        <time>2015-02-22T16:02:04Z</time>
      </trkpt>
      <trkpt lat="43.62613" lon="6.2244">
        <ele>493.29</ele>
        <time>2015-02-22T16:02:23Z</time>
      </trkpt>
      <trkpt lat="43.62612" lon="6.22441">
        <ele>493.77</ele>
        <time>2015-02-22T16:02:46Z</time>
      </trkpt>
      <trkpt lat="43.62607" lon="6.2244">
        <ele>492.81</ele>
        <time>2015-02-22T16:03:03Z</time>
      </trkpt>
      <trkpt lat="43.62604" lon="6.22442">
        <ele>492.81</ele>
        <time>2015-02-22T16:03:06Z</time>
      </trkpt>
      <trkpt lat="43.62585" lon="6.2246">
        <ele>491.85</ele>
        <time>2015-02-22T16:03:21Z</time>
      </trkpt>
      <trkpt lat="43.62571" lon="6.22472">
        <ele>491.85</ele>
        <time>2015-02-22T16:03:34Z</time>
      </trkpt>
      <trkpt lat="43.62563" lon="6.22478">
        <ele>491.85</ele>
        <time>2015-02-22T16:03:48Z</time>
      </trkpt>
      <trkpt lat="43.62551" lon="6.22485">
        <ele>491.85</ele>
        <time>2015-02-22T16:03:59Z</time>
      </trkpt>
      <trkpt lat="43.62542" lon="6.22479">
        <ele>491.37</ele>
        <time>2015-02-22T16:04:06Z</time>
      </trkpt>
      <trkpt lat="43.62522" lon="6.22461">
        <ele>489.93</ele>
        <time>2015-02-22T16:04:22Z</time>
      </trkpt>
      <trkpt lat="43.62503" lon="6.22446">
        <ele>488.97</ele>
        <time>2015-02-22T16:04:38Z</time>
      </trkpt>
      <trkpt lat="43.62478" lon="6.22449">
        <ele>488.01</ele>
        <time>2015-02-22T16:04:54Z</time>
      </trkpt>
      <trkpt lat="43.62457" lon="6.22462">
        <ele>487.53</ele>
        <time>2015-02-22T16:05:10Z</time>
      </trkpt>
      <trkpt lat="43.62445" lon="6.22471">
        <ele>487.05</ele>
        <time>2015-02-22T16:05:24Z</time>
      </trkpt>
      <trkpt lat="43.62444" lon="6.22471">
        <ele>487.53</ele>
        <time>2015-02-22T16:05:26Z</time>
      </trkpt>
      <trkpt lat="43.62429" lon="6.22489">
        <ele>487.05</ele>
        <time>2015-02-22T16:05:37Z</time>
      </trkpt>
      <trkpt lat="43.62412" lon="6.22505">
        <ele>487.05</ele>
        <time>2015-02-22T16:05:50Z</time>
      </trkpt>
      <trkpt lat="43.62398" lon="6.22523">
        <ele>486.08</ele>
        <time>2015-02-22T16:06:02Z</time>
      </trkpt>
      <trkpt lat="43.62384" lon="6.2254">
        <ele>485.6</ele>
        <time>2015-02-22T16:06:15Z</time>
      </trkpt>
      <trkpt lat="43.62361" lon="6.22554">
        <ele>485.12</ele>
        <time>2015-02-22T16:06:31Z</time>
      </trkpt>
      <trkpt lat="43.62342" lon="6.22566">
        <ele>485.12</ele>
        <time>2015-02-22T16:06:44Z</time>
      </trkpt>
      <trkpt lat="43.62326" lon="6.22572">
        <ele>484.64</ele>
        <time>2015-02-22T16:06:55Z</time>
      </trkpt>
      <trkpt lat="43.6231" lon="6.22581">
        <ele>484.16</ele>
        <time>2015-02-22T16:07:08Z</time>
      </trkpt>
      <trkpt lat="43.62291" lon="6.22594">
        <ele>483.68</ele>
        <time>2015-02-22T16:07:22Z</time>
      </trkpt>
      <trkpt lat="43.62274" lon="6.22605">
        <ele>483.68</ele>
        <time>2015-02-22T16:07:35Z</time>
      </trkpt>
      <trkpt lat="43.62258" lon="6.22622">
        <ele>482.72</ele>
        <time>2015-02-22T16:07:47Z</time>
      </trkpt>
      <trkpt lat="43.62247" lon="6.22635">
        <ele>482.72</ele>
        <time>2015-02-22T16:07:58Z</time>
      </trkpt>
      <trkpt lat="43.62247" lon="6.22636">
        <ele>482.72</ele>
        <time>2015-02-22T16:08:15Z</time>
      </trkpt>
      <trkpt lat="43.62242" lon="6.22642">
        <ele>481.76</ele>
        <time>2015-02-22T16:08:20Z</time>
      </trkpt>
      <trkpt lat="43.62236" lon="6.22649">
        <ele>482.24</ele>
        <time>2015-02-22T16:08:25Z</time>
      </trkpt>
      <trkpt lat="43.62225" lon="6.22673">
        <ele>481.76</ele>
        <time>2015-02-22T16:08:40Z</time>
      </trkpt>
      <trkpt lat="43.62222" lon="6.22693">
        <ele>481.76</ele>
        <time>2015-02-22T16:08:54Z</time>
      </trkpt>
      <trkpt lat="43.6222" lon="6.22698">
        <ele>481.76</ele>
        <time>2015-02-22T16:08:58Z</time>
      </trkpt>
      <trkpt lat="43.62217" lon="6.227">
        <ele>481.76</ele>
        <time>2015-02-22T16:09:14Z</time>
      </trkpt>
      <trkpt lat="43.62217" lon="6.227">
        <ele>481.28</ele>
        <time>2015-02-22T16:09:34Z</time>
      </trkpt>
      <trkpt lat="43.62217" lon="6.22701">
        <ele>481.28</ele>
        <time>2015-02-22T16:09:54Z</time>
      </trkpt>
      <trkpt lat="43.62215" lon="6.22705">
        <ele>482.24</ele>
        <time>2015-02-22T16:10:07Z</time>
      </trkpt>
      <trkpt lat="43.62215" lon="6.22706">
        <ele>481.28</ele>
        <time>2015-02-22T16:10:09Z</time>
      </trkpt>
      <trkpt lat="43.62212" lon="6.22707">
        <ele>481.28</ele>
        <time>2015-02-22T16:10:11Z</time>
      </trkpt>
      <trkpt lat="43.62206" lon="6.22711">
        <ele>480.8</ele>
        <time>2015-02-22T16:10:16Z</time>
      </trkpt>
      <trkpt lat="43.62191" lon="6.22717">
        <ele>480.8</ele>
        <time>2015-02-22T16:10:31Z</time>
      </trkpt>
      <trkpt lat="43.62191" lon="6.22717">
        <ele>480.32</ele>
        <time>2015-02-22T16:10:32Z</time>
      </trkpt>
      <trkpt lat="43.62185" lon="6.22719">
        <ele>480.32</ele>
        <time>2015-02-22T16:10:37Z</time>
      </trkpt>
      <trkpt lat="43.62166" lon="6.22734">
        <ele>480.32</ele>
        <time>2015-02-22T16:10:51Z</time>
      </trkpt>
      <trkpt lat="43.62161" lon="6.22737">
        <ele>480.32</ele>
        <time>2015-02-22T16:10:55Z</time>
      </trkpt>
      <trkpt lat="43.62151" lon="6.22744">
        <ele>480.32</ele>
        <time>2015-02-22T16:11:02Z</time>
      </trkpt>
      <trkpt lat="43.62136" lon="6.22759">
        <ele>480.32</ele>
        <time>2015-02-22T16:11:15Z</time>
      </trkpt>
      <trkpt lat="43.6213" lon="6.22766">
        <ele>480.32</ele>
        <time>2015-02-22T16:11:28Z</time>
      </trkpt>
      <trkpt lat="43.6213" lon="6.22768">
        <ele>480.32</ele>
        <time>2015-02-22T16:11:30Z</time>
      </trkpt>
      <trkpt lat="43.62124" lon="6.22776">
        <ele>480.32</ele>
        <time>2015-02-22T16:11:39Z</time>
      </trkpt>
      <trkpt lat="43.62124" lon="6.22776">
        <ele>480.32</ele>
        <time>2015-02-22T16:11:41Z</time>
      </trkpt>
      <trkpt lat="43.62121" lon="6.22779">
        <ele>479.84</ele>
        <time>2015-02-22T16:11:44Z</time>
      </trkpt>
      <trkpt lat="43.62099" lon="6.22801">
        <ele>479.84</ele>
        <time>2015-02-22T16:12:00Z</time>
      </trkpt>
      <trkpt lat="43.62083" lon="6.22814">
        <ele>479.84</ele>
        <time>2015-02-22T16:12:13Z</time>
      </trkpt>
      <trkpt lat="43.62077" lon="6.2282">
        <ele>480.32</ele>
        <time>2015-02-22T16:12:26Z</time>
      </trkpt>
      <trkpt lat="43.62076" lon="6.22821">
        <ele>480.32</ele>
        <time>2015-02-22T16:12:33Z</time>
      </trkpt>
      <trkpt lat="43.62072" lon="6.22826">
        <ele>479.84</ele>
        <time>2015-02-22T16:12:37Z</time>
      </trkpt>
      <trkpt lat="43.62059" lon="6.22835">
        <ele>479.84</ele>
        <time>2015-02-22T16:12:43Z</time>
      </trkpt>
      <trkpt lat="43.62008" lon="6.22864">
        <ele>478.87</ele>
        <time>2015-02-22T16:12:57Z</time>
      </trkpt>
      <trkpt lat="43.62004" lon="6.22867">
        <ele>479.35</ele>
        <time>2015-02-22T16:12:58Z</time>
      </trkpt>
      <trkpt lat="43.61983" lon="6.22881">
        <ele>478.87</ele>
        <time>2015-02-22T16:13:07Z</time>
      </trkpt>
      <trkpt lat="43.6198" lon="6.2288">
        <ele>478.39</ele>
        <time>2015-02-22T16:13:17Z</time>
      </trkpt>
      <trkpt lat="43.61976" lon="6.22877">
        <ele>478.39</ele>
        <time>2015-02-22T16:13:32Z</time>
      </trkpt>
      <trkpt lat="43.61975" lon="6.22878">
        <ele>478.39</ele>
        <time>2015-02-22T16:13:46Z</time>
      </trkpt>
      <trkpt lat="43.61972" lon="6.22879">
        <ele>478.39</ele>
        <time>2015-02-22T16:13:49Z</time>
      </trkpt>
      <trkpt lat="43.61961" lon="6.22885">
        <ele>477.91</ele>
        <time>2015-02-22T16:14:02Z</time>
      </trkpt>
      <trkpt lat="43.61959" lon="6.22886">
        <ele>477.91</ele>
        <time>2015-02-22T16:14:03Z</time>
      </trkpt>
      <trkpt lat="43.61951" lon="6.2289">
        <ele>476.95</ele>
        <time>2015-02-22T16:14:11Z</time>
      </trkpt>
      <trkpt lat="43.6195" lon="6.22891">
        <ele>476.47</ele>
        <time>2015-02-22T16:14:12Z</time>
      </trkpt>
      <trkpt lat="43.61948" lon="6.22892">
        <ele>476.47</ele>
        <time>2015-02-22T16:14:13Z</time>
      </trkpt>
      <trkpt lat="43.61946" lon="6.22892">
        <ele>476.47</ele>
        <time>2015-02-22T16:14:14Z</time>
      </trkpt>
      <trkpt lat="43.61929" lon="6.22898">
        <ele>474.55</ele>
        <time>2015-02-22T16:14:26Z</time>
      </trkpt>
      <trkpt lat="43.6192" lon="6.22902">
        <ele>474.07</ele>
        <time>2015-02-22T16:14:40Z</time>
      </trkpt>
      <trkpt lat="43.61916" lon="6.22905">
        <ele>473.59</ele>
        <time>2015-02-22T16:14:50Z</time>
      </trkpt>
      <trkpt lat="43.61912" lon="6.22906">
        <ele>473.59</ele>
        <time>2015-02-22T16:15:01Z</time>
      </trkpt>
      <trkpt lat="43.6191" lon="6.22907">
        <ele>473.59</ele>
        <time>2015-02-22T16:15:03Z</time>
      </trkpt>
      <trkpt lat="43.61908" lon="6.22908">
        <ele>473.59</ele>
        <time>2015-02-22T16:15:05Z</time>
      </trkpt>
      <trkpt lat="43.61906" lon="6.22909">
        <ele>473.59</ele>
        <time>2015-02-22T16:15:06Z</time>
      </trkpt>
      <trkpt lat="43.61905" lon="6.2291">
        <ele>473.11</ele>
        <time>2015-02-22T16:15:07Z</time>
      </trkpt>
      <trkpt lat="43.61903" lon="6.22911">
        <ele>473.11</ele>
        <time>2015-02-22T16:15:08Z</time>
      </trkpt>
      <trkpt lat="43.61891" lon="6.22922">
        <ele>472.14</ele>
        <time>2015-02-22T16:15:21Z</time>
      </trkpt>
      <trkpt lat="43.61885" lon="6.22925">
        <ele>472.14</ele>
        <time>2015-02-22T16:15:37Z</time>
      </trkpt>
      <trkpt lat="43.61878" lon="6.22927">
        <ele>471.66</ele>
        <time>2015-02-22T16:15:50Z</time>
      </trkpt>
      <trkpt lat="43.61877" lon="6.22928">
        <ele>471.66</ele>
        <time>2015-02-22T16:15:52Z</time>
      </trkpt>
      <trkpt lat="43.61874" lon="6.22929">
        <ele>471.66</ele>
        <time>2015-02-22T16:15:55Z</time>
      </trkpt>
      <trkpt lat="43.61866" lon="6.22933">
        <ele>470.7</ele>
        <time>2015-02-22T16:16:04Z</time>
      </trkpt>
      <trkpt lat="43.61865" lon="6.22934">
        <ele>471.18</ele>
        <time>2015-02-22T16:16:05Z</time>
      </trkpt>
      <trkpt lat="43.61861" lon="6.22937">
        <ele>471.18</ele>
        <time>2015-02-22T16:16:08Z</time>
      </trkpt>
      <trkpt lat="43.61862" lon="6.22945">
        <ele>470.7</ele>
        <time>2015-02-22T16:16:21Z</time>
      </trkpt>
      <trkpt lat="43.61853" lon="6.22947">
        <ele>469.74</ele>
        <time>2015-02-22T16:16:35Z</time>
      </trkpt>
      <trkpt lat="43.61848" lon="6.22949">
        <ele>469.26</ele>
        <time>2015-02-22T16:16:48Z</time>
      </trkpt>
      <trkpt lat="43.61836" lon="6.22962">
        <ele>468.78</ele>
        <time>2015-02-22T16:17:02Z</time>
      </trkpt>
      <trkpt lat="43.61833" lon="6.22964">
        <ele>468.3</ele>
        <time>2015-02-22T16:17:16Z</time>
      </trkpt>
      <trkpt lat="43.61824" lon="6.22972">
        <ele>467.82</ele>
        <time>2015-02-22T16:17:30Z</time>
      </trkpt>
      <trkpt lat="43.61808" lon="6.22981">
        <ele>465.9</ele>
        <time>2015-02-22T16:17:41Z</time>
      </trkpt>
      <trkpt lat="43.61785" lon="6.22996">
        <ele>464.93</ele>
        <time>2015-02-22T16:17:56Z</time>
      </trkpt>
      <trkpt lat="43.6176" lon="6.23004">
        <ele>464.45</ele>
        <time>2015-02-22T16:18:11Z</time>
      </trkpt>
      <trkpt lat="43.61742" lon="6.23013">
        <ele>464.45</ele>
        <time>2015-02-22T16:18:25Z</time>
      </trkpt>
      <trkpt lat="43.61737" lon="6.23013">
        <ele>464.93</ele>
        <time>2015-02-22T16:18:29Z</time>
      </trkpt>
      <trkpt lat="43.61718" lon="6.23014">
        <ele>467.34</ele>
        <time>2015-02-22T16:18:43Z</time>
      </trkpt>
      <trkpt lat="43.61717" lon="6.23013">
        <ele>467.34</ele>
        <time>2015-02-22T16:18:44Z</time>
      </trkpt>
      <trkpt lat="43.617" lon="6.23007">
        <ele>468.78</ele>
        <time>2015-02-22T16:18:58Z</time>
      </trkpt>
      <trkpt lat="43.61682" lon="6.22998">
        <ele>469.26</ele>
        <time>2015-02-22T16:19:11Z</time>
      </trkpt>
      <trkpt lat="43.61654" lon="6.22987">
        <ele>470.7</ele>
        <time>2015-02-22T16:19:28Z</time>
      </trkpt>
      <trkpt lat="43.6165" lon="6.22983">
        <ele>471.18</ele>
        <time>2015-02-22T16:19:32Z</time>
      </trkpt>
      <trkpt lat="43.61638" lon="6.22974">
        <ele>471.66</ele>
        <time>2015-02-22T16:19:37Z</time>
      </trkpt>
      <trkpt lat="43.61601" lon="6.22949">
        <ele>472.14</ele>
        <time>2015-02-22T16:19:50Z</time>
      </trkpt>
      <trkpt lat="43.6158" lon="6.22956">
        <ele>469.74</ele>
        <time>2015-02-22T16:20:04Z</time>
      </trkpt>
      <trkpt lat="43.61571" lon="6.2296">
        <ele>470.7</ele>
        <time>2015-02-22T16:20:11Z</time>
      </trkpt>
      <trkpt lat="43.61558" lon="6.22972">
        <ele>470.22</ele>
        <time>2015-02-22T16:20:20Z</time>
      </trkpt>
      <trkpt lat="43.6155" lon="6.22996">
        <ele>468.3</ele>
        <time>2015-02-22T16:20:32Z</time>
      </trkpt>
      <trkpt lat="43.61545" lon="6.23019">
        <ele>468.3</ele>
        <time>2015-02-22T16:20:44Z</time>
      </trkpt>
      <trkpt lat="43.61541" lon="6.23045">
        <ele>467.82</ele>
        <time>2015-02-22T16:20:57Z</time>
      </trkpt>
      <trkpt lat="43.61537" lon="6.23068">
        <ele>466.86</ele>
        <time>2015-02-22T16:21:11Z</time>
      </trkpt>
      <trkpt lat="43.61534" lon="6.23076">
        <ele>466.38</ele>
        <time>2015-02-22T16:21:15Z</time>
      </trkpt>
      <trkpt lat="43.61534" lon="6.23086">
        <ele>465.42</ele>
        <time>2015-02-22T16:21:21Z</time>
      </trkpt>
      <trkpt lat="43.61532" lon="6.23106">
        <ele>463.49</ele>
        <time>2015-02-22T16:21:32Z</time>
      </trkpt>
      <trkpt lat="43.61531" lon="6.23115">
        <ele>463.01</ele>
        <time>2015-02-22T16:21:36Z</time>
      </trkpt>
      <trkpt lat="43.61531" lon="6.23118">
        <ele>462.53</ele>
        <time>2015-02-22T16:21:37Z</time>
      </trkpt>
      <trkpt lat="43.61538" lon="6.2314">
        <ele>461.09</ele>
        <time>2015-02-22T16:21:48Z</time>
      </trkpt>
      <trkpt lat="43.61545" lon="6.23171">
        <ele>460.61</ele>
        <time>2015-02-22T16:22:04Z</time>
      </trkpt>
      <trkpt lat="43.61538" lon="6.23195">
        <ele>460.13</ele>
        <time>2015-02-22T16:22:16Z</time>
      </trkpt>
      <trkpt lat="43.61521" lon="6.23209">
        <ele>460.61</ele>
        <time>2015-02-22T16:22:30Z</time>
      </trkpt>
      <trkpt lat="43.61519" lon="6.23215">
        <ele>460.61</ele>
        <time>2015-02-22T16:22:40Z</time>
      </trkpt>
      <trkpt lat="43.61527" lon="6.23206">
        <ele>459.65</ele>
        <time>2015-02-22T16:22:48Z</time>
      </trkpt>
      <trkpt lat="43.61538" lon="6.23205">
        <ele>459.65</ele>
        <time>2015-02-22T16:22:52Z</time>
      </trkpt>
      <trkpt lat="43.61562" lon="6.2322">
        <ele>459.65</ele>
        <time>2015-02-22T16:23:08Z</time>
      </trkpt>
      <trkpt lat="43.6157" lon="6.23232">
        <ele>460.61</ele>
        <time>2015-02-22T16:23:25Z</time>
      </trkpt>
      <trkpt lat="43.61577" lon="6.23237">
        <ele>461.57</ele>
        <time>2015-02-22T16:23:29Z</time>
      </trkpt>
      <trkpt lat="43.61581" lon="6.23241">
        <ele>463.01</ele>
        <time>2015-02-22T16:23:32Z</time>
      </trkpt>
      <trkpt lat="43.61585" lon="6.23253">
        <ele>465.9</ele>
        <time>2015-02-22T16:23:38Z</time>
      </trkpt>
      <trkpt lat="43.61589" lon="6.23259">
        <ele>467.82</ele>
        <time>2015-02-22T16:23:44Z</time>
      </trkpt>
      <trkpt lat="43.61597" lon="6.23266">
        <ele>468.78</ele>
        <time>2015-02-22T16:23:53Z</time>
      </trkpt>
      <trkpt lat="43.61604" lon="6.23268">
        <ele>468.3</ele>
        <time>2015-02-22T16:23:58Z</time>
      </trkpt>
      <trkpt lat="43.61608" lon="6.23269">
        <ele>468.3</ele>
        <time>2015-02-22T16:24:01Z</time>
      </trkpt>
      <trkpt lat="43.61611" lon="6.23269">
        <ele>467.82</ele>
        <time>2015-02-22T16:24:03Z</time>
      </trkpt>
      <trkpt lat="43.61619" lon="6.23272">
        <ele>467.34</ele>
        <time>2015-02-22T16:24:11Z</time>
      </trkpt>
      <trkpt lat="43.61625" lon="6.23277">
        <ele>467.34</ele>
        <time>2015-02-22T16:24:15Z</time>
      </trkpt>
      <trkpt lat="43.61652" lon="6.23293">
        <ele>468.3</ele>
        <time>2015-02-22T16:24:34Z</time>
      </trkpt>
      <trkpt lat="43.61665" lon="6.23304">
        <ele>471.18</ele>
        <time>2015-02-22T16:24:48Z</time>
      </trkpt>
      <trkpt lat="43.61668" lon="6.23307">
        <ele>471.66</ele>
        <time>2015-02-22T16:24:53Z</time>
      </trkpt>
      <trkpt lat="43.61664" lon="6.2332">
        <ele>472.14</ele>
        <time>2015-02-22T16:25:00Z</time>
      </trkpt>
      <trkpt lat="43.61661" lon="6.23321">
        <ele>471.66</ele>
        <time>2015-02-22T16:25:03Z</time>
      </trkpt>
      <trkpt lat="43.61648" lon="6.23323">
        <ele>472.14</ele>
        <time>2015-02-22T16:25:16Z</time>
      </trkpt>
      <trkpt lat="43.61645" lon="6.23323">
        <ele>472.63</ele>
        <time>2015-02-22T16:25:18Z</time>
      </trkpt>
      <trkpt lat="43.61621" lon="6.23322">
        <ele>474.55</ele>
        <time>2015-02-22T16:25:35Z</time>
      </trkpt>
      <trkpt lat="43.61606" lon="6.23324">
        <ele>475.03</ele>
        <time>2015-02-22T16:25:48Z</time>
      </trkpt>
      <trkpt lat="43.61588" lon="6.23328">
        <ele>476.95</ele>
        <time>2015-02-22T16:26:02Z</time>
      </trkpt>
      <trkpt lat="43.61584" lon="6.23328">
        <ele>476.95</ele>
        <time>2015-02-22T16:26:05Z</time>
      </trkpt>
      <trkpt lat="43.6158" lon="6.23326">
        <ele>476.47</ele>
        <time>2015-02-22T16:26:08Z</time>
      </trkpt>
      <trkpt lat="43.61559" lon="6.23328">
        <ele>476.47</ele>
        <time>2015-02-22T16:26:22Z</time>
      </trkpt>
      <trkpt lat="43.61555" lon="6.23325">
        <ele>475.99</ele>
        <time>2015-02-22T16:26:26Z</time>
      </trkpt>
      <trkpt lat="43.6154" lon="6.23323">
        <ele>474.07</ele>
        <time>2015-02-22T16:26:42Z</time>
      </trkpt>
      <trkpt lat="43.61522" lon="6.23324">
        <ele>474.07</ele>
        <time>2015-02-22T16:26:55Z</time>
      </trkpt>
      <trkpt lat="43.61505" lon="6.2333">
        <ele>473.11</ele>
        <time>2015-02-22T16:27:11Z</time>
      </trkpt>
      <trkpt lat="43.61504" lon="6.2333">
        <ele>473.11</ele>
        <time>2015-02-22T16:27:12Z</time>
      </trkpt>
      <trkpt lat="43.61474" lon="6.23343">
        <ele>473.11</ele>
        <time>2015-02-22T16:27:26Z</time>
      </trkpt>
      <trkpt lat="43.61457" lon="6.23351">
        <ele>471.66</ele>
        <time>2015-02-22T16:27:35Z</time>
      </trkpt>
      <trkpt lat="43.61436" lon="6.23367">
        <ele>472.14</ele>
        <time>2015-02-22T16:27:49Z</time>
      </trkpt>
      <trkpt lat="43.61433" lon="6.23369">
        <ele>472.63</ele>
        <time>2015-02-22T16:27:51Z</time>
      </trkpt>
      <trkpt lat="43.61418" lon="6.23378">
        <ele>471.18</ele>
        <time>2015-02-22T16:28:03Z</time>
      </trkpt>
      <trkpt lat="43.61411" lon="6.23381">
        <ele>470.22</ele>
        <time>2015-02-22T16:28:07Z</time>
      </trkpt>
      <trkpt lat="43.61395" lon="6.23388">
        <ele>469.26</ele>
        <time>2015-02-22T16:28:18Z</time>
      </trkpt>
      <trkpt lat="43.61374" lon="6.23392">
        <ele>466.38</ele>
        <time>2015-02-22T16:28:29Z</time>
      </trkpt>
      <trkpt lat="43.61353" lon="6.23399">
        <ele>463.97</ele>
        <time>2015-02-22T16:28:43Z</time>
      </trkpt>
      <trkpt lat="43.6134" lon="6.23408">
        <ele>463.97</ele>
        <time>2015-02-22T16:28:56Z</time>
      </trkpt>
      <trkpt lat="43.61326" lon="6.23422">
        <ele>464.45</ele>
        <time>2015-02-22T16:29:04Z</time>
      </trkpt>
      <trkpt lat="43.61307" lon="6.23424">
        <ele>465.42</ele>
        <time>2015-02-22T16:29:18Z</time>
      </trkpt>
      <trkpt lat="43.61302" lon="6.23426">
        <ele>464.93</ele>
        <time>2015-02-22T16:29:21Z</time>
      </trkpt>
      <trkpt lat="43.61299" lon="6.23426">
        <ele>465.42</ele>
        <time>2015-02-22T16:29:24Z</time>
      </trkpt>
      <trkpt lat="43.61287" lon="6.23428">
        <ele>464.93</ele>
        <time>2015-02-22T16:29:33Z</time>
      </trkpt>
      <trkpt lat="43.61265" lon="6.23439">
        <ele>464.93</ele>
        <time>2015-02-22T16:29:47Z</time>
      </trkpt>
      <trkpt lat="43.6124" lon="6.23444">
        <ele>464.93</ele>
        <time>2015-02-22T16:30:03Z</time>
      </trkpt>
      <trkpt lat="43.61219" lon="6.23454">
        <ele>464.93</ele>
        <time>2015-02-22T16:30:16Z</time>
      </trkpt>
      <trkpt lat="43.61208" lon="6.23458">
        <ele>464.45</ele>
        <time>2015-02-22T16:30:24Z</time>
      </trkpt>
      <trkpt lat="43.61183" lon="6.23469">
        <ele>463.97</ele>
        <time>2015-02-22T16:30:41Z</time>
      </trkpt>
      <trkpt lat="43.61164" lon="6.23478">
        <ele>463.49</ele>
        <time>2015-02-22T16:30:53Z</time>
      </trkpt>
      <trkpt lat="43.6114" lon="6.23487">
        <ele>462.53</ele>
        <time>2015-02-22T16:31:07Z</time>
      </trkpt>
      <trkpt lat="43.61121" lon="6.23497">
        <ele>462.05</ele>
        <time>2015-02-22T16:31:20Z</time>
      </trkpt>
      <trkpt lat="43.61112" lon="6.23503">
        <ele>461.57</ele>
        <time>2015-02-22T16:31:28Z</time>
      </trkpt>
      <trkpt lat="43.6111" lon="6.23503">
        <ele>461.09</ele>
        <time>2015-02-22T16:31:30Z</time>
      </trkpt>
      <trkpt lat="43.61099" lon="6.23502">
        <ele>461.09</ele>
        <time>2015-02-22T16:31:38Z</time>
      </trkpt>
      <trkpt lat="43.61091" lon="6.23507">
        <ele>460.13</ele>
        <time>2015-02-22T16:31:43Z</time>
      </trkpt>
      <trkpt lat="43.61076" lon="6.23512">
        <ele>459.65</ele>
        <time>2015-02-22T16:31:55Z</time>
      </trkpt>
      <trkpt lat="43.61072" lon="6.23513">
        <ele>458.69</ele>
        <time>2015-02-22T16:31:57Z</time>
      </trkpt>
      <trkpt lat="43.61052" lon="6.23514">
        <ele>457.72</ele>
        <time>2015-02-22T16:32:07Z</time>
      </trkpt>
      <trkpt lat="43.61022" lon="6.23526">
        <ele>457.24</ele>
        <time>2015-02-22T16:32:24Z</time>
      </trkpt>
      <trkpt lat="43.60994" lon="6.23533">
        <ele>456.76</ele>
        <time>2015-02-22T16:32:40Z</time>
      </trkpt>
      <trkpt lat="43.60971" lon="6.23543">
        <ele>456.76</ele>
        <time>2015-02-22T16:32:55Z</time>
      </trkpt>
      <trkpt lat="43.60964" lon="6.23546">
        <ele>456.28</ele>
        <time>2015-02-22T16:32:59Z</time>
      </trkpt>
      <trkpt lat="43.60949" lon="6.23554">
        <ele>456.76</ele>
        <time>2015-02-22T16:33:09Z</time>
      </trkpt>
      <trkpt lat="43.60931" lon="6.23573">
        <ele>458.69</ele>
        <time>2015-02-22T16:33:23Z</time>
      </trkpt>
      <trkpt lat="43.6092" lon="6.23582">
        <ele>458.21</ele>
        <time>2015-02-22T16:33:34Z</time>
      </trkpt>
      <trkpt lat="43.60917" lon="6.23585">
        <ele>457.72</ele>
        <time>2015-02-22T16:33:36Z</time>
      </trkpt>
      <trkpt lat="43.60901" lon="6.23596">
        <ele>456.28</ele>
        <time>2015-02-22T16:33:47Z</time>
      </trkpt>
      <trkpt lat="43.60879" lon="6.23605">
        <ele>454.84</ele>
        <time>2015-02-22T16:34:01Z</time>
      </trkpt>
      <trkpt lat="43.60867" lon="6.23607">
        <ele>454.84</ele>
        <time>2015-02-22T16:34:10Z</time>
      </trkpt>
      <trkpt lat="43.60853" lon="6.23614">
        <ele>452.92</ele>
        <time>2015-02-22T16:34:20Z</time>
      </trkpt>
      <trkpt lat="43.60843" lon="6.2362">
        <ele>451.96</ele>
        <time>2015-02-22T16:34:26Z</time>
      </trkpt>
      <trkpt lat="43.60837" lon="6.23622">
        <ele>451.96</ele>
        <time>2015-02-22T16:34:29Z</time>
      </trkpt>
      <trkpt lat="43.60815" lon="6.23632">
        <ele>451</ele>
        <time>2015-02-22T16:34:43Z</time>
      </trkpt>
      <trkpt lat="43.60797" lon="6.23639">
        <ele>450.52</ele>
        <time>2015-02-22T16:34:56Z</time>
      </trkpt>
      <trkpt lat="43.60786" lon="6.23648">
        <ele>449.55</ele>
        <time>2015-02-22T16:35:07Z</time>
      </trkpt>
      <trkpt lat="43.60781" lon="6.23655">
        <ele>450.03</ele>
        <time>2015-02-22T16:35:12Z</time>
      </trkpt>
      <trkpt lat="43.60763" lon="6.23677">
        <ele>450.03</ele>
        <time>2015-02-22T16:35:26Z</time>
      </trkpt>
      <trkpt lat="43.60758" lon="6.23682">
        <ele>449.55</ele>
        <time>2015-02-22T16:35:30Z</time>
      </trkpt>
      <trkpt lat="43.60756" lon="6.23685">
        <ele>449.07</ele>
        <time>2015-02-22T16:35:32Z</time>
      </trkpt>
      <trkpt lat="43.60753" lon="6.23687">
        <ele>449.07</ele>
        <time>2015-02-22T16:35:34Z</time>
      </trkpt>
      <trkpt lat="43.60749" lon="6.23694">
        <ele>448.59</ele>
        <time>2015-02-22T16:35:38Z</time>
      </trkpt>
      <trkpt lat="43.60736" lon="6.23702">
        <ele>448.59</ele>
        <time>2015-02-22T16:35:48Z</time>
      </trkpt>
      <trkpt lat="43.60729" lon="6.23705">
        <ele>448.11</ele>
        <time>2015-02-22T16:35:56Z</time>
      </trkpt>
      <trkpt lat="43.60713" lon="6.23709">
        <ele>444.75</ele>
        <time>2015-02-22T16:36:09Z</time>
      </trkpt>
      <trkpt lat="43.60711" lon="6.2371">
        <ele>444.75</ele>
        <time>2015-02-22T16:36:11Z</time>
      </trkpt>
      <trkpt lat="43.60708" lon="6.23711">
        <ele>443.79</ele>
        <time>2015-02-22T16:36:13Z</time>
      </trkpt>
      <trkpt lat="43.60703" lon="6.23717">
        <ele>441.86</ele>
        <time>2015-02-22T16:36:21Z</time>
      </trkpt>
      <trkpt lat="43.60703" lon="6.23723">
        <ele>441.38</ele>
        <time>2015-02-22T16:36:24Z</time>
      </trkpt>
      <trkpt lat="43.607" lon="6.23745">
        <ele>438.98</ele>
        <time>2015-02-22T16:36:38Z</time>
      </trkpt>
      <trkpt lat="43.60685" lon="6.23756">
        <ele>438.02</ele>
        <time>2015-02-22T16:36:51Z</time>
      </trkpt>
      <trkpt lat="43.60678" lon="6.23755">
        <ele>437.06</ele>
        <time>2015-02-22T16:36:57Z</time>
      </trkpt>
      <trkpt lat="43.60662" lon="6.23735">
        <ele>436.1</ele>
        <time>2015-02-22T16:37:14Z</time>
      </trkpt>
      <trkpt lat="43.6066" lon="6.23733">
        <ele>436.1</ele>
        <time>2015-02-22T16:37:17Z</time>
      </trkpt>
      <trkpt lat="43.60641" lon="6.23725">
        <ele>435.13</ele>
        <time>2015-02-22T16:37:30Z</time>
      </trkpt>
      <trkpt lat="43.60631" lon="6.23724">
        <ele>435.61</ele>
        <time>2015-02-22T16:37:37Z</time>
      </trkpt>
      <trkpt lat="43.60626" lon="6.23723">
        <ele>436.1</ele>
        <time>2015-02-22T16:37:41Z</time>
      </trkpt>
      <trkpt lat="43.60614" lon="6.23735">
        <ele>438.5</ele>
        <time>2015-02-22T16:37:54Z</time>
      </trkpt>
      <trkpt lat="43.60601" lon="6.23744">
        <ele>440.9</ele>
        <time>2015-02-22T16:38:07Z</time>
      </trkpt>
      <trkpt lat="43.60594" lon="6.23748">
        <ele>441.86</ele>
        <time>2015-02-22T16:38:15Z</time>
      </trkpt>
      <trkpt lat="43.60574" lon="6.23747">
        <ele>441.86</ele>
        <time>2015-02-22T16:38:30Z</time>
      </trkpt>
      <trkpt lat="43.60556" lon="6.23741">
        <ele>442.34</ele>
        <time>2015-02-22T16:38:45Z</time>
      </trkpt>
      <trkpt lat="43.60543" lon="6.23734">
        <ele>445.71</ele>
        <time>2015-02-22T16:38:58Z</time>
      </trkpt>
      <trkpt lat="43.60526" lon="6.23725">
        <ele>444.75</ele>
        <time>2015-02-22T16:39:14Z</time>
      </trkpt>
      <trkpt lat="43.60509" lon="6.23728">
        <ele>444.75</ele>
        <time>2015-02-22T16:39:28Z</time>
      </trkpt>
      <trkpt lat="43.60509" lon="6.23729">
        <ele>444.75</ele>
        <time>2015-02-22T16:39:29Z</time>
      </trkpt>
      <trkpt lat="43.60506" lon="6.23738">
        <ele>445.71</ele>
        <time>2015-02-22T16:39:35Z</time>
      </trkpt>
      <trkpt lat="43.60505" lon="6.23743">
        <ele>446.19</ele>
        <time>2015-02-22T16:39:38Z</time>
      </trkpt>
      <trkpt lat="43.60503" lon="6.23763">
        <ele>446.67</ele>
        <time>2015-02-22T16:39:49Z</time>
      </trkpt>
      <trkpt lat="43.60494" lon="6.23779">
        <ele>447.15</ele>
        <time>2015-02-22T16:40:01Z</time>
      </trkpt>
      <trkpt lat="43.60485" lon="6.23806">
        <ele>447.63</ele>
        <time>2015-02-22T16:40:17Z</time>
      </trkpt>
      <trkpt lat="43.60473" lon="6.23827">
        <ele>447.15</ele>
        <time>2015-02-22T16:40:30Z</time>
      </trkpt>
      <trkpt lat="43.60469" lon="6.23847">
        <ele>446.67</ele>
        <time>2015-02-22T16:40:41Z</time>
      </trkpt>
      <trkpt lat="43.60463" lon="6.23875">
        <ele>446.67</ele>
        <time>2015-02-22T16:40:56Z</time>
      </trkpt>
      <trkpt lat="43.60462" lon="6.23899">
        <ele>446.67</ele>
        <time>2015-02-22T16:41:10Z</time>
      </trkpt>
      <trkpt lat="43.60461" lon="6.23907">
        <ele>445.71</ele>
        <time>2015-02-22T16:41:14Z</time>
      </trkpt>
      <trkpt lat="43.60462" lon="6.23934">
        <ele>444.75</ele>
        <time>2015-02-22T16:41:27Z</time>
      </trkpt>
      <trkpt lat="43.6046" lon="6.23947">
        <ele>443.79</ele>
        <time>2015-02-22T16:41:34Z</time>
      </trkpt>
      <trkpt lat="43.60454" lon="6.23947">
        <ele>444.75</ele>
        <time>2015-02-22T16:41:38Z</time>
      </trkpt>
      <trkpt lat="43.60431" lon="6.23935">
        <ele>443.79</ele>
        <time>2015-02-22T16:41:53Z</time>
      </trkpt>
      <trkpt lat="43.60411" lon="6.23905">
        <ele>442.34</ele>
        <time>2015-02-22T16:42:04Z</time>
      </trkpt>
      <trkpt lat="43.60404" lon="6.23888">
        <ele>441.38</ele>
        <time>2015-02-22T16:42:09Z</time>
      </trkpt>
      <trkpt lat="43.60386" lon="6.23878">
        <ele>439.94</ele>
        <time>2015-02-22T16:42:16Z</time>
      </trkpt>
      <trkpt lat="43.60371" lon="6.23876">
        <ele>438.98</ele>
        <time>2015-02-22T16:42:22Z</time>
      </trkpt>
      <trkpt lat="43.60352" lon="6.23875">
        <ele>437.54</ele>
        <time>2015-02-22T16:42:30Z</time>
      </trkpt>
      <trkpt lat="43.60338" lon="6.23881">
        <ele>436.1</ele>
        <time>2015-02-22T16:42:35Z</time>
      </trkpt>
      <trkpt lat="43.60326" lon="6.239">
        <ele>435.61</ele>
        <time>2015-02-22T16:42:41Z</time>
      </trkpt>
      <trkpt lat="43.60306" lon="6.2394">
        <ele>438.98</ele>
        <time>2015-02-22T16:42:50Z</time>
      </trkpt>
      <trkpt lat="43.60286" lon="6.23963">
        <ele>439.94</ele>
        <time>2015-02-22T16:43:00Z</time>
      </trkpt>
      <trkpt lat="43.60272" lon="6.23984">
        <ele>439.46</ele>
        <time>2015-02-22T16:43:13Z</time>
      </trkpt>
      <trkpt lat="43.60257" lon="6.24016">
        <ele>437.54</ele>
        <time>2015-02-22T16:43:29Z</time>
      </trkpt>
      <trkpt lat="43.60253" lon="6.24024">
        <ele>437.06</ele>
        <time>2015-02-22T16:43:34Z</time>
      </trkpt>
      <trkpt lat="43.60243" lon="6.24039">
        <ele>436.58</ele>
        <time>2015-02-22T16:43:44Z</time>
      </trkpt>
      <trkpt lat="43.6024" lon="6.24046">
        <ele>435.61</ele>
        <time>2015-02-22T16:43:48Z</time>
      </trkpt>
      <trkpt lat="43.60226" lon="6.24075">
        <ele>434.65</ele>
        <time>2015-02-22T16:44:05Z</time>
      </trkpt>
      <trkpt lat="43.60224" lon="6.24078">
        <ele>434.17</ele>
        <time>2015-02-22T16:44:07Z</time>
      </trkpt>
      <trkpt lat="43.60212" lon="6.24101">
        <ele>434.17</ele>
        <time>2015-02-22T16:44:23Z</time>
      </trkpt>
      <trkpt lat="43.60207" lon="6.24108">
        <ele>434.17</ele>
        <time>2015-02-22T16:44:29Z</time>
      </trkpt>
      <trkpt lat="43.60204" lon="6.24115">
        <ele>434.65</ele>
        <time>2015-02-22T16:44:33Z</time>
      </trkpt>
      <trkpt lat="43.602" lon="6.2412">
        <ele>434.65</ele>
        <time>2015-02-22T16:44:37Z</time>
      </trkpt>
      <trkpt lat="43.60198" lon="6.24124">
        <ele>434.17</ele>
        <time>2015-02-22T16:44:39Z</time>
      </trkpt>
      <trkpt lat="43.60182" lon="6.2415">
        <ele>434.65</ele>
        <time>2015-02-22T16:44:54Z</time>
      </trkpt>
      <trkpt lat="43.60168" lon="6.24169">
        <ele>435.13</ele>
        <time>2015-02-22T16:45:08Z</time>
      </trkpt>
      <trkpt lat="43.60155" lon="6.24187">
        <ele>435.61</ele>
        <time>2015-02-22T16:45:20Z</time>
      </trkpt>
      <trkpt lat="43.60143" lon="6.24202">
        <ele>436.1</ele>
        <time>2015-02-22T16:45:33Z</time>
      </trkpt>
      <trkpt lat="43.60136" lon="6.24222">
        <ele>435.13</ele>
        <time>2015-02-22T16:45:44Z</time>
      </trkpt>
      <trkpt lat="43.60132" lon="6.2425">
        <ele>434.65</ele>
        <time>2015-02-22T16:45:57Z</time>
      </trkpt>
      <trkpt lat="43.60126" lon="6.24275">
        <ele>434.65</ele>
        <time>2015-02-22T16:46:09Z</time>
      </trkpt>
      <trkpt lat="43.6012" lon="6.24299">
        <ele>434.17</ele>
        <time>2015-02-22T16:46:20Z</time>
      </trkpt>
      <trkpt lat="43.60115" lon="6.24323">
        <ele>433.69</ele>
        <time>2015-02-22T16:46:33Z</time>
      </trkpt>
      <trkpt lat="43.60106" lon="6.24346">
        <ele>433.21</ele>
        <time>2015-02-22T16:46:45Z</time>
      </trkpt>
      <trkpt lat="43.60096" lon="6.2437">
        <ele>434.17</ele>
        <time>2015-02-22T16:46:58Z</time>
      </trkpt>
      <trkpt lat="43.60083" lon="6.24398">
        <ele>434.17</ele>
        <time>2015-02-22T16:47:14Z</time>
      </trkpt>
      <trkpt lat="43.60071" lon="6.24421">
        <ele>434.65</ele>
        <time>2015-02-22T16:47:27Z</time>
      </trkpt>
      <trkpt lat="43.60058" lon="6.24445">
        <ele>435.13</ele>
        <time>2015-02-22T16:47:41Z</time>
      </trkpt>
      <trkpt lat="43.60042" lon="6.24472">
        <ele>436.58</ele>
        <time>2015-02-22T16:47:56Z</time>
      </trkpt>
      <trkpt lat="43.6003" lon="6.24505">
        <ele>438.98</ele>
        <time>2015-02-22T16:48:11Z</time>
      </trkpt>
      <trkpt lat="43.60025" lon="6.24533">
        <ele>439.94</ele>
        <time>2015-02-22T16:48:26Z</time>
      </trkpt>
      <trkpt lat="43.60031" lon="6.24565">
        <ele>440.9</ele>
        <time>2015-02-22T16:48:42Z</time>
      </trkpt>
      <trkpt lat="43.60034" lon="6.24594">
        <ele>441.86</ele>
        <time>2015-02-22T16:48:57Z</time>
      </trkpt>
      <trkpt lat="43.60035" lon="6.24622">
        <ele>442.82</ele>
        <time>2015-02-22T16:49:12Z</time>
      </trkpt>
      <trkpt lat="43.60027" lon="6.24643">
        <ele>442.82</ele>
        <time>2015-02-22T16:49:24Z</time>
      </trkpt>
      <trkpt lat="43.60019" lon="6.24664">
        <ele>443.31</ele>
        <time>2015-02-22T16:49:37Z</time>
      </trkpt>
      <trkpt lat="43.60015" lon="6.24676">
        <ele>442.82</ele>
        <time>2015-02-22T16:49:44Z</time>
      </trkpt>
      <trkpt lat="43.60017" lon="6.24683">
        <ele>442.82</ele>
        <time>2015-02-22T16:49:48Z</time>
      </trkpt>
      <trkpt lat="43.60004" lon="6.24705">
        <ele>443.79</ele>
        <time>2015-02-22T16:50:02Z</time>
      </trkpt>
      <trkpt lat="43.59994" lon="6.2473">
        <ele>444.75</ele>
        <time>2015-02-22T16:50:16Z</time>
      </trkpt>
      <trkpt lat="43.59981" lon="6.2476">
        <ele>445.23</ele>
        <time>2015-02-22T16:50:35Z</time>
      </trkpt>
      <trkpt lat="43.59976" lon="6.24774">
        <ele>445.71</ele>
        <time>2015-02-22T16:50:44Z</time>
      </trkpt>
      <trkpt lat="43.59974" lon="6.24775">
        <ele>445.23</ele>
        <time>2015-02-22T16:50:57Z</time>
      </trkpt>
      <trkpt lat="43.59974" lon="6.24776">
        <ele>445.23</ele>
        <time>2015-02-22T16:51:05Z</time>
      </trkpt>
      <trkpt lat="43.59973" lon="6.2478">
        <ele>444.27</ele>
        <time>2015-02-22T16:51:11Z</time>
      </trkpt>
      <trkpt lat="43.59973" lon="6.24782">
        <ele>445.23</ele>
        <time>2015-02-22T16:51:16Z</time>
      </trkpt>
      <trkpt lat="43.5997" lon="6.24786">
        <ele>445.71</ele>
        <time>2015-02-22T16:51:28Z</time>
      </trkpt>
      <trkpt lat="43.59961" lon="6.24805">
        <ele>445.71</ele>
        <time>2015-02-22T16:51:42Z</time>
      </trkpt>
      <trkpt lat="43.5996" lon="6.24818">
        <ele>447.15</ele>
        <time>2015-02-22T16:51:50Z</time>
      </trkpt>
      <trkpt lat="43.59971" lon="6.24841">
        <ele>448.11</ele>
        <time>2015-02-22T16:52:06Z</time>
      </trkpt>
      <trkpt lat="43.59983" lon="6.24858">
        <ele>449.55</ele>
        <time>2015-02-22T16:52:20Z</time>
      </trkpt>
      <trkpt lat="43.59992" lon="6.24874">
        <ele>450.52</ele>
        <time>2015-02-22T16:52:32Z</time>
      </trkpt>
      <trkpt lat="43.59995" lon="6.24892">
        <ele>451.48</ele>
        <time>2015-02-22T16:52:44Z</time>
      </trkpt>
      <trkpt lat="43.59995" lon="6.24893">
        <ele>451.48</ele>
        <time>2015-02-22T16:52:45Z</time>
      </trkpt>
      <trkpt lat="43.59989" lon="6.24915">
        <ele>452.44</ele>
        <time>2015-02-22T16:53:00Z</time>
      </trkpt>
      <trkpt lat="43.59979" lon="6.24934">
        <ele>453.88</ele>
        <time>2015-02-22T16:53:14Z</time>
      </trkpt>
      <trkpt lat="43.59979" lon="6.2494">
        <ele>454.36</ele>
        <time>2015-02-22T16:53:26Z</time>
      </trkpt>
      <trkpt lat="43.59972" lon="6.24958">
        <ele>454.84</ele>
        <time>2015-02-22T16:53:39Z</time>
      </trkpt>
      <trkpt lat="43.59962" lon="6.24982">
        <ele>456.28</ele>
        <time>2015-02-22T16:53:57Z</time>
      </trkpt>
      <trkpt lat="43.59961" lon="6.2499">
        <ele>456.76</ele>
        <time>2015-02-22T16:54:02Z</time>
      </trkpt>
      <trkpt lat="43.5996" lon="6.25008">
        <ele>457.72</ele>
        <time>2015-02-22T16:54:15Z</time>
      </trkpt>
      <trkpt lat="43.59961" lon="6.25009">
        <ele>457.24</ele>
        <time>2015-02-22T16:54:16Z</time>
      </trkpt>
      <trkpt lat="43.59958" lon="6.25019">
        <ele>457.24</ele>
        <time>2015-02-22T16:54:21Z</time>
      </trkpt>
      <trkpt lat="43.59949" lon="6.25047">
        <ele>457.24</ele>
        <time>2015-02-22T16:54:37Z</time>
      </trkpt>
      <trkpt lat="43.5994" lon="6.25073">
        <ele>455.32</ele>
        <time>2015-02-22T16:54:53Z</time>
      </trkpt>
      <trkpt lat="43.59941" lon="6.25075">
        <ele>455.32</ele>
        <time>2015-02-22T16:55:16Z</time>
      </trkpt>
      <trkpt lat="43.59942" lon="6.25076">
        <ele>455.8</ele>
        <time>2015-02-22T16:55:26Z</time>
      </trkpt>
      <trkpt lat="43.59945" lon="6.25079">
        <ele>456.28</ele>
        <time>2015-02-22T16:55:42Z</time>
      </trkpt>
      <trkpt lat="43.59943" lon="6.25077">
        <ele>455.8</ele>
        <time>2015-02-22T16:55:55Z</time>
      </trkpt>
      <trkpt lat="43.59943" lon="6.25078">
        <ele>455.8</ele>
        <time>2015-02-22T16:56:16Z</time>
      </trkpt>
      <trkpt lat="43.59945" lon="6.25079">
        <ele>455.32</ele>
        <time>2015-02-22T16:56:34Z</time>
      </trkpt>
      <trkpt lat="43.59944" lon="6.25079">
        <ele>456.28</ele>
        <time>2015-02-22T16:56:51Z</time>
      </trkpt>
      <trkpt lat="43.59944" lon="6.25078">
        <ele>456.28</ele>
        <time>2015-02-22T16:57:08Z</time>
      </trkpt>
      <trkpt lat="43.59944" lon="6.25078">
        <ele>455.8</ele>
        <time>2015-02-22T16:57:26Z</time>
      </trkpt>
      <trkpt lat="43.59944" lon="6.25078">
        <ele>455.32</ele>
        <time>2015-02-22T16:57:49Z</time>
      </trkpt>
      <trkpt lat="43.59944" lon="6.25077">
        <ele>455.8</ele>
        <time>2015-02-22T16:58:11Z</time>
      </trkpt>
      <trkpt lat="43.59944" lon="6.25077">
        <ele>455.8</ele>
        <time>2015-02-22T16:58:27Z</time>
      </trkpt>
      <trkpt lat="43.59943" lon="6.25077">
        <ele>456.28</ele>
        <time>2015-02-22T16:58:41Z</time>
      </trkpt>
      <trkpt lat="43.59943" lon="6.25077">
        <ele>455.8</ele>
        <time>2015-02-22T16:58:55Z</time>
      </trkpt>
      <trkpt lat="43.59943" lon="6.25077">
        <ele>455.8</ele>
        <time>2015-02-22T16:59:11Z</time>
      </trkpt>
      <trkpt lat="43.59942" lon="6.25077">
        <ele>455.32</ele>
        <time>2015-02-22T16:59:25Z</time>
      </trkpt>
      <trkpt lat="43.59943" lon="6.25077">
        <ele>455.8</ele>
        <time>2015-02-22T16:59:45Z</time>
      </trkpt>
      <trkpt lat="43.59943" lon="6.25077">
        <ele>455.8</ele>
        <time>2015-02-22T17:00:00Z</time>
      </trkpt>
      <trkpt lat="43.59943" lon="6.25077">
        <ele>454.84</ele>
        <time>2015-02-22T17:00:18Z</time>
      </trkpt>
      <trkpt lat="43.59943" lon="6.25076">
        <ele>455.32</ele>
        <time>2015-02-22T17:00:32Z</time>
      </trkpt>
      <trkpt lat="43.59943" lon="6.25076">
        <ele>455.32</ele>
        <time>2015-02-22T17:00:49Z</time>
      </trkpt>
      <trkpt lat="43.59943" lon="6.25076">
        <ele>454.84</ele>
        <time>2015-02-22T17:01:11Z</time>
      </trkpt>
      <trkpt lat="43.59943" lon="6.25077">
        <ele>455.8</ele>
        <time>2015-02-22T17:01:31Z</time>
      </trkpt>
      <trkpt lat="43.59944" lon="6.25078">
        <ele>455.32</ele>
        <time>2015-02-22T17:01:41Z</time>
      </trkpt>
      <trkpt lat="43.59944" lon="6.25075">
        <ele>455.32</ele>
        <time>2015-02-22T17:01:54Z</time>
      </trkpt>
      <trkpt lat="43.59944" lon="6.25072">
        <ele>455.32</ele>
        <time>2015-02-22T17:02:07Z</time>
      </trkpt>
      <trkpt lat="43.59944" lon="6.25075">
        <ele>455.32</ele>
        <time>2015-02-22T17:02:17Z</time>
      </trkpt>
      <trkpt lat="43.59941" lon="6.25074">
        <ele>455.32</ele>
        <time>2015-02-22T17:02:27Z</time>
      </trkpt>
      <trkpt lat="43.59941" lon="6.25076">
        <ele>455.32</ele>
        <time>2015-02-22T17:02:40Z</time>
      </trkpt>
      <trkpt lat="43.59939" lon="6.25076">
        <ele>454.84</ele>
        <time>2015-02-22T17:02:56Z</time>
      </trkpt>
      <trkpt lat="43.5994" lon="6.25079">
        <ele>454.84</ele>
        <time>2015-02-22T17:03:09Z</time>
      </trkpt>
      <trkpt lat="43.5994" lon="6.2508">
        <ele>455.32</ele>
        <time>2015-02-22T17:03:21Z</time>
      </trkpt>
      <trkpt lat="43.59941" lon="6.25076">
        <ele>455.32</ele>
        <time>2015-02-22T17:03:31Z</time>
      </trkpt>
      <trkpt lat="43.59939" lon="6.25075">
        <ele>455.32</ele>
        <time>2015-02-22T17:03:43Z</time>
      </trkpt>
      <trkpt lat="43.59938" lon="6.25075">
        <ele>454.84</ele>
        <time>2015-02-22T17:03:47Z</time>
      </trkpt>
      <trkpt lat="43.59937" lon="6.25079">
        <ele>454.84</ele>
        <time>2015-02-22T17:03:58Z</time>
      </trkpt>
      <trkpt lat="43.59938" lon="6.25086">
        <ele>454.84</ele>
        <time>2015-02-22T17:04:10Z</time>
      </trkpt>
      <trkpt lat="43.59937" lon="6.25083">
        <ele>455.32</ele>
        <time>2015-02-22T17:04:21Z</time>
      </trkpt>
      <trkpt lat="43.5994" lon="6.25081">
        <ele>455.32</ele>
        <time>2015-02-22T17:04:32Z</time>
      </trkpt>
      <trkpt lat="43.5994" lon="6.25077">
        <ele>455.32</ele>
        <time>2015-02-22T17:04:45Z</time>
      </trkpt>
      <trkpt lat="43.59942" lon="6.25077">
        <ele>455.32</ele>
        <time>2015-02-22T17:04:59Z</time>
      </trkpt>
      <trkpt lat="43.59943" lon="6.25078">
        <ele>455.8</ele>
        <time>2015-02-22T17:05:15Z</time>
      </trkpt>
      <trkpt lat="43.59942" lon="6.25077">
        <ele>455.8</ele>
        <time>2015-02-22T17:05:22Z</time>
      </trkpt>
      <trkpt lat="43.59941" lon="6.25074">
        <ele>455.8</ele>
        <time>2015-02-22T17:05:24Z</time>
      </trkpt>
      <trkpt lat="43.59939" lon="6.25063">
        <ele>455.32</ele>
        <time>2015-02-22T17:05:29Z</time>
      </trkpt>
      <trkpt lat="43.59933" lon="6.25032">
        <ele>454.36</ele>
        <time>2015-02-22T17:05:43Z</time>
      </trkpt>
      <trkpt lat="43.59932" lon="6.25027">
        <ele>454.36</ele>
        <time>2015-02-22T17:05:45Z</time>
      </trkpt>
      <trkpt lat="43.59931" lon="6.25018">
        <ele>454.36</ele>
        <time>2015-02-22T17:05:49Z</time>
      </trkpt>
      <trkpt lat="43.59929" lon="6.24992">
        <ele>453.4</ele>
        <time>2015-02-22T17:05:59Z</time>
      </trkpt>
      <trkpt lat="43.5993" lon="6.24973">
        <ele>452.92</ele>
        <time>2015-02-22T17:06:12Z</time>
      </trkpt>
      <trkpt lat="43.59931" lon="6.24969">
        <ele>451.96</ele>
        <time>2015-02-22T17:06:15Z</time>
      </trkpt>
      <trkpt lat="43.59932" lon="6.24956">
        <ele>451.48</ele>
        <time>2015-02-22T17:06:31Z</time>
      </trkpt>
      <trkpt lat="43.59932" lon="6.24949">
        <ele>451.96</ele>
        <time>2015-02-22T17:06:45Z</time>
      </trkpt>
    </trkseg>
  </trk>
</gpx>